<?xml version="1.0" encoding="UTF-8" standalone="no" ?>
<gpx xmlns="http://www.topografix.com/GPX/1/1" xmlns:xsi="http://www.w3.org/2001/XMLSchema-instance" xsi:schemaLocation="http://www.topografix.com/GPX/1/1 http://www.topografix.com/GPX/1/1/gpx.xsd" version="1.1" creator="VisuGPX - https://www.visugpx.com">
  <metadata>
    <name>Esclauzel1403</name>
    <desc><![CDATA[Balade autours d'Esclauzel pour Eric et Françoise]]></desc>
  </metadata>
  <trk>
    <name><![CDATA[Esclauzel1403_1]]></name>
    <trkseg>
      <trkpt lat="44.42636" lon="1.65661">
        <ele>350.8</ele>
        <time>2017-03-14T14:47:50Z</time>
      </trkpt>
      <trkpt lat="44.42636" lon="1.65661">
        <ele>396</ele>
        <time>2017-03-14T14:47:57Z</time>
      </trkpt>
      <trkpt lat="44.42652" lon="1.65644">
        <ele>403</ele>
        <time>2017-03-14T14:48:31Z</time>
      </trkpt>
      <trkpt lat="44.42659" lon="1.65625">
        <ele>406</ele>
        <time>2017-03-14T14:48:41Z</time>
      </trkpt>
      <trkpt lat="44.42657" lon="1.65612">
        <ele>402</ele>
        <time>2017-03-14T14:48:50Z</time>
      </trkpt>
      <trkpt lat="44.42665" lon="1.65598">
        <ele>405</ele>
        <time>2017-03-14T14:48:57Z</time>
      </trkpt>
      <trkpt lat="44.42678" lon="1.65577">
        <ele>403</ele>
        <time>2017-03-14T14:49:09Z</time>
      </trkpt>
      <trkpt lat="44.42685" lon="1.65564">
        <ele>400</ele>
        <time>2017-03-14T14:49:17Z</time>
      </trkpt>
      <trkpt lat="44.42692" lon="1.65545">
        <ele>405</ele>
        <time>2017-03-14T14:49:28Z</time>
      </trkpt>
      <trkpt lat="44.42693" lon="1.65529">
        <ele>409</ele>
        <time>2017-03-14T14:49:36Z</time>
      </trkpt>
      <trkpt lat="44.42699" lon="1.65515">
        <ele>408</ele>
        <time>2017-03-14T14:49:49Z</time>
      </trkpt>
      <trkpt lat="44.42699" lon="1.65495">
        <ele>406</ele>
        <time>2017-03-14T14:50:04Z</time>
      </trkpt>
      <trkpt lat="44.42696" lon="1.65465">
        <ele>405</ele>
        <time>2017-03-14T14:50:18Z</time>
      </trkpt>
      <trkpt lat="44.42694" lon="1.65452">
        <ele>407</ele>
        <time>2017-03-14T14:50:24Z</time>
      </trkpt>
      <trkpt lat="44.42701" lon="1.65434">
        <ele>404</ele>
        <time>2017-03-14T14:50:35Z</time>
      </trkpt>
      <trkpt lat="44.42713" lon="1.65428">
        <ele>408</ele>
        <time>2017-03-14T14:50:48Z</time>
      </trkpt>
      <trkpt lat="44.42713" lon="1.65384">
        <ele>407</ele>
        <time>2017-03-14T14:51:07Z</time>
      </trkpt>
      <trkpt lat="44.42706" lon="1.65375">
        <ele>408</ele>
        <time>2017-03-14T14:51:09Z</time>
      </trkpt>
      <trkpt lat="44.42712" lon="1.65357">
        <ele>406</ele>
        <time>2017-03-14T14:51:18Z</time>
      </trkpt>
      <trkpt lat="44.42712" lon="1.65357">
        <ele>406</ele>
        <time>2017-03-14T14:51:23Z</time>
      </trkpt>
      <trkpt lat="44.42714" lon="1.65341">
        <ele>407</ele>
        <time>2017-03-14T14:51:28Z</time>
      </trkpt>
      <trkpt lat="44.42717" lon="1.65327">
        <ele>406</ele>
        <time>2017-03-14T14:51:37Z</time>
      </trkpt>
      <trkpt lat="44.42716" lon="1.65301">
        <ele>404</ele>
        <time>2017-03-14T14:51:49Z</time>
      </trkpt>
      <trkpt lat="44.42717" lon="1.65293">
        <ele>406</ele>
        <time>2017-03-14T14:51:53Z</time>
      </trkpt>
      <trkpt lat="44.42722" lon="1.6528">
        <ele>403</ele>
        <time>2017-03-14T14:52:04Z</time>
      </trkpt>
      <trkpt lat="44.42727" lon="1.65257">
        <ele>405</ele>
        <time>2017-03-14T14:52:17Z</time>
      </trkpt>
      <trkpt lat="44.42731" lon="1.65251">
        <ele>407</ele>
        <time>2017-03-14T14:52:19Z</time>
      </trkpt>
      <trkpt lat="44.42734" lon="1.65235">
        <ele>409</ele>
        <time>2017-03-14T14:52:29Z</time>
      </trkpt>
      <trkpt lat="44.42735" lon="1.65228">
        <ele>408</ele>
        <time>2017-03-14T14:52:34Z</time>
      </trkpt>
      <trkpt lat="44.42743" lon="1.65221">
        <ele>414</ele>
        <time>2017-03-14T14:52:44Z</time>
      </trkpt>
      <trkpt lat="44.42748" lon="1.65202">
        <ele>417</ele>
        <time>2017-03-14T14:52:58Z</time>
      </trkpt>
      <trkpt lat="44.42762" lon="1.65186">
        <ele>416</ele>
        <time>2017-03-14T14:53:11Z</time>
      </trkpt>
      <trkpt lat="44.42769" lon="1.65177">
        <ele>419</ele>
        <time>2017-03-14T14:53:24Z</time>
      </trkpt>
      <trkpt lat="44.42781" lon="1.65169">
        <ele>423</ele>
        <time>2017-03-14T14:53:37Z</time>
      </trkpt>
      <trkpt lat="44.42801" lon="1.65153">
        <ele>428</ele>
        <time>2017-03-14T14:53:54Z</time>
      </trkpt>
      <trkpt lat="44.42813" lon="1.65131">
        <ele>421</ele>
        <time>2017-03-14T14:54:10Z</time>
      </trkpt>
      <trkpt lat="44.42797" lon="1.65104">
        <ele>419</ele>
        <time>2017-03-14T14:54:27Z</time>
      </trkpt>
      <trkpt lat="44.42778" lon="1.65102">
        <ele>421</ele>
        <time>2017-03-14T14:54:42Z</time>
      </trkpt>
      <trkpt lat="44.42769" lon="1.65081">
        <ele>422</ele>
        <time>2017-03-14T14:54:55Z</time>
      </trkpt>
      <trkpt lat="44.42759" lon="1.65069">
        <ele>423</ele>
        <time>2017-03-14T14:55:01Z</time>
      </trkpt>
      <trkpt lat="44.42754" lon="1.65057">
        <ele>422</ele>
        <time>2017-03-14T14:55:12Z</time>
      </trkpt>
      <trkpt lat="44.42746" lon="1.65038">
        <ele>423</ele>
        <time>2017-03-14T14:55:23Z</time>
      </trkpt>
      <trkpt lat="44.42739" lon="1.6502">
        <ele>419</ele>
        <time>2017-03-14T14:55:38Z</time>
      </trkpt>
      <trkpt lat="44.42735" lon="1.64989">
        <ele>423</ele>
        <time>2017-03-14T14:56:00Z</time>
      </trkpt>
      <trkpt lat="44.42735" lon="1.64985">
        <ele>424</ele>
        <time>2017-03-14T14:56:05Z</time>
      </trkpt>
      <trkpt lat="44.42738" lon="1.64957">
        <ele>425</ele>
        <time>2017-03-14T14:56:24Z</time>
      </trkpt>
      <trkpt lat="44.42745" lon="1.64938">
        <ele>432</ele>
        <time>2017-03-14T14:56:32Z</time>
      </trkpt>
      <trkpt lat="44.4275" lon="1.64936">
        <ele>429</ele>
        <time>2017-03-14T14:56:35Z</time>
      </trkpt>
      <trkpt lat="44.42757" lon="1.6492">
        <ele>430</ele>
        <time>2017-03-14T14:56:46Z</time>
      </trkpt>
      <trkpt lat="44.42765" lon="1.64914">
        <ele>432</ele>
        <time>2017-03-14T14:56:51Z</time>
      </trkpt>
      <trkpt lat="44.4277" lon="1.64905">
        <ele>430</ele>
        <time>2017-03-14T14:56:57Z</time>
      </trkpt>
      <trkpt lat="44.4278" lon="1.64895">
        <ele>431</ele>
        <time>2017-03-14T14:57:05Z</time>
      </trkpt>
      <trkpt lat="44.42794" lon="1.64881">
        <ele>432</ele>
        <time>2017-03-14T14:57:16Z</time>
      </trkpt>
      <trkpt lat="44.42805" lon="1.64865">
        <ele>434</ele>
        <time>2017-03-14T14:57:30Z</time>
      </trkpt>
      <trkpt lat="44.4281" lon="1.64848">
        <ele>429</ele>
        <time>2017-03-14T14:57:42Z</time>
      </trkpt>
      <trkpt lat="44.42805" lon="1.64763">
        <ele>419</ele>
        <time>2017-03-14T14:58:19Z</time>
      </trkpt>
      <trkpt lat="44.42816" lon="1.64764">
        <ele>415</ele>
        <time>2017-03-14T14:58:31Z</time>
      </trkpt>
      <trkpt lat="44.42818" lon="1.64743">
        <ele>413</ele>
        <time>2017-03-14T14:58:42Z</time>
      </trkpt>
      <trkpt lat="44.42824" lon="1.64721">
        <ele>407</ele>
        <time>2017-03-14T14:58:53Z</time>
      </trkpt>
      <trkpt lat="44.42832" lon="1.64695">
        <ele>408</ele>
        <time>2017-03-14T14:59:01Z</time>
      </trkpt>
      <trkpt lat="44.42839" lon="1.6467">
        <ele>407</ele>
        <time>2017-03-14T14:59:08Z</time>
      </trkpt>
      <trkpt lat="44.42845" lon="1.64638">
        <ele>411</ele>
        <time>2017-03-14T14:59:16Z</time>
      </trkpt>
      <trkpt lat="44.42848" lon="1.64614">
        <ele>406</ele>
        <time>2017-03-14T14:59:25Z</time>
      </trkpt>
      <trkpt lat="44.42857" lon="1.64563">
        <ele>405</ele>
        <time>2017-03-14T14:59:38Z</time>
      </trkpt>
      <trkpt lat="44.42863" lon="1.64531">
        <ele>409</ele>
        <time>2017-03-14T14:59:46Z</time>
      </trkpt>
      <trkpt lat="44.42861" lon="1.64504">
        <ele>402</ele>
        <time>2017-03-14T14:59:55Z</time>
      </trkpt>
      <trkpt lat="44.42856" lon="1.64466">
        <ele>406</ele>
        <time>2017-03-14T15:00:05Z</time>
      </trkpt>
      <trkpt lat="44.42852" lon="1.64439">
        <ele>407</ele>
        <time>2017-03-14T15:00:13Z</time>
      </trkpt>
      <trkpt lat="44.42846" lon="1.64411">
        <ele>406</ele>
        <time>2017-03-14T15:00:21Z</time>
      </trkpt>
      <trkpt lat="44.42841" lon="1.64384">
        <ele>407</ele>
        <time>2017-03-14T15:00:29Z</time>
      </trkpt>
      <trkpt lat="44.42842" lon="1.64363">
        <ele>408</ele>
        <time>2017-03-14T15:00:34Z</time>
      </trkpt>
      <trkpt lat="44.42844" lon="1.64348">
        <ele>405</ele>
        <time>2017-03-14T15:00:39Z</time>
      </trkpt>
      <trkpt lat="44.42849" lon="1.64326">
        <ele>407</ele>
        <time>2017-03-14T15:00:46Z</time>
      </trkpt>
      <trkpt lat="44.42852" lon="1.64301">
        <ele>408</ele>
        <time>2017-03-14T15:00:54Z</time>
      </trkpt>
      <trkpt lat="44.42868" lon="1.64256">
        <ele>414</ele>
        <time>2017-03-14T15:01:05Z</time>
      </trkpt>
      <trkpt lat="44.42872" lon="1.64242">
        <ele>415</ele>
        <time>2017-03-14T15:01:10Z</time>
      </trkpt>
      <trkpt lat="44.42876" lon="1.64224">
        <ele>409</ele>
        <time>2017-03-14T15:01:21Z</time>
      </trkpt>
      <trkpt lat="44.4288" lon="1.64203">
        <ele>408</ele>
        <time>2017-03-14T15:01:33Z</time>
      </trkpt>
      <trkpt lat="44.4288" lon="1.64203">
        <ele>408</ele>
        <time>2017-03-14T15:01:41Z</time>
      </trkpt>
      <trkpt lat="44.4288" lon="1.64203">
        <ele>408</ele>
        <time>2017-03-14T15:01:42Z</time>
      </trkpt>
      <trkpt lat="44.42882" lon="1.64178">
        <ele>414</ele>
        <time>2017-03-14T15:01:52Z</time>
      </trkpt>
      <trkpt lat="44.42882" lon="1.64149">
        <ele>414</ele>
        <time>2017-03-14T15:02:02Z</time>
      </trkpt>
      <trkpt lat="44.42884" lon="1.64128">
        <ele>412</ele>
        <time>2017-03-14T15:02:15Z</time>
      </trkpt>
      <trkpt lat="44.42875" lon="1.64109">
        <ele>415</ele>
        <time>2017-03-14T15:02:23Z</time>
      </trkpt>
      <trkpt lat="44.42875" lon="1.64093">
        <ele>412</ele>
        <time>2017-03-14T15:02:31Z</time>
      </trkpt>
      <trkpt lat="44.42874" lon="1.64072">
        <ele>412</ele>
        <time>2017-03-14T15:02:43Z</time>
      </trkpt>
      <trkpt lat="44.42848" lon="1.64043">
        <ele>415</ele>
        <time>2017-03-14T15:03:01Z</time>
      </trkpt>
      <trkpt lat="44.42844" lon="1.64024">
        <ele>414</ele>
        <time>2017-03-14T15:03:12Z</time>
      </trkpt>
      <trkpt lat="44.42834" lon="1.64004">
        <ele>413</ele>
        <time>2017-03-14T15:03:22Z</time>
      </trkpt>
      <trkpt lat="44.42825" lon="1.63983">
        <ele>411</ele>
        <time>2017-03-14T15:03:34Z</time>
      </trkpt>
      <trkpt lat="44.42821" lon="1.63971">
        <ele>408</ele>
        <time>2017-03-14T15:03:44Z</time>
      </trkpt>
      <trkpt lat="44.42819" lon="1.63953">
        <ele>411</ele>
        <time>2017-03-14T15:03:59Z</time>
      </trkpt>
      <trkpt lat="44.4283" lon="1.63928">
        <ele>418</ele>
        <time>2017-03-14T15:04:11Z</time>
      </trkpt>
      <trkpt lat="44.42836" lon="1.63915">
        <ele>411</ele>
        <time>2017-03-14T15:04:21Z</time>
      </trkpt>
      <trkpt lat="44.42843" lon="1.63905">
        <ele>410</ele>
        <time>2017-03-14T15:04:31Z</time>
      </trkpt>
      <trkpt lat="44.42859" lon="1.63879">
        <ele>409</ele>
        <time>2017-03-14T15:04:49Z</time>
      </trkpt>
      <trkpt lat="44.42878" lon="1.63862">
        <ele>408</ele>
        <time>2017-03-14T15:05:06Z</time>
      </trkpt>
      <trkpt lat="44.42887" lon="1.63842">
        <ele>408</ele>
        <time>2017-03-14T15:05:23Z</time>
      </trkpt>
      <trkpt lat="44.42897" lon="1.63829">
        <ele>412</ele>
        <time>2017-03-14T15:05:37Z</time>
      </trkpt>
      <trkpt lat="44.42909" lon="1.63816">
        <ele>411</ele>
        <time>2017-03-14T15:05:51Z</time>
      </trkpt>
      <trkpt lat="44.42927" lon="1.638">
        <ele>413</ele>
        <time>2017-03-14T15:06:08Z</time>
      </trkpt>
      <trkpt lat="44.42936" lon="1.63788">
        <ele>413</ele>
        <time>2017-03-14T15:06:19Z</time>
      </trkpt>
      <trkpt lat="44.42946" lon="1.63776">
        <ele>411</ele>
        <time>2017-03-14T15:06:30Z</time>
      </trkpt>
      <trkpt lat="44.42957" lon="1.63761">
        <ele>413</ele>
        <time>2017-03-14T15:06:44Z</time>
      </trkpt>
      <trkpt lat="44.4297" lon="1.63735">
        <ele>413</ele>
        <time>2017-03-14T15:07:05Z</time>
      </trkpt>
      <trkpt lat="44.42979" lon="1.63723">
        <ele>412</ele>
        <time>2017-03-14T15:07:13Z</time>
      </trkpt>
      <trkpt lat="44.42986" lon="1.6371">
        <ele>414</ele>
        <time>2017-03-14T15:07:27Z</time>
      </trkpt>
      <trkpt lat="44.42995" lon="1.63696">
        <ele>415</ele>
        <time>2017-03-14T15:07:36Z</time>
      </trkpt>
      <trkpt lat="44.43004" lon="1.63675">
        <ele>410</ele>
        <time>2017-03-14T15:07:55Z</time>
      </trkpt>
      <trkpt lat="44.43016" lon="1.63658">
        <ele>410</ele>
        <time>2017-03-14T15:08:07Z</time>
      </trkpt>
      <trkpt lat="44.43018" lon="1.63644">
        <ele>412</ele>
        <time>2017-03-14T15:08:11Z</time>
      </trkpt>
      <trkpt lat="44.43018" lon="1.63639">
        <ele>407</ele>
        <time>2017-03-14T15:08:17Z</time>
      </trkpt>
      <trkpt lat="44.43014" lon="1.63614">
        <ele>406</ele>
        <time>2017-03-14T15:08:32Z</time>
      </trkpt>
      <trkpt lat="44.43002" lon="1.63599">
        <ele>407</ele>
        <time>2017-03-14T15:08:44Z</time>
      </trkpt>
      <trkpt lat="44.42982" lon="1.63598">
        <ele>403</ele>
        <time>2017-03-14T15:08:59Z</time>
      </trkpt>
      <trkpt lat="44.42968" lon="1.63596">
        <ele>405</ele>
        <time>2017-03-14T15:09:12Z</time>
      </trkpt>
      <trkpt lat="44.42954" lon="1.63581">
        <ele>400</ele>
        <time>2017-03-14T15:09:32Z</time>
      </trkpt>
      <trkpt lat="44.42937" lon="1.63577">
        <ele>399</ele>
        <time>2017-03-14T15:09:50Z</time>
      </trkpt>
      <trkpt lat="44.42927" lon="1.63573">
        <ele>398</ele>
        <time>2017-03-14T15:10:01Z</time>
      </trkpt>
      <trkpt lat="44.42908" lon="1.63572">
        <ele>395</ele>
        <time>2017-03-14T15:10:21Z</time>
      </trkpt>
      <trkpt lat="44.42897" lon="1.63567">
        <ele>394</ele>
        <time>2017-03-14T15:10:28Z</time>
      </trkpt>
      <trkpt lat="44.42891" lon="1.63579">
        <ele>388</ele>
        <time>2017-03-14T15:10:42Z</time>
      </trkpt>
      <trkpt lat="44.42877" lon="1.63583">
        <ele>385</ele>
        <time>2017-03-14T15:10:53Z</time>
      </trkpt>
      <trkpt lat="44.4286" lon="1.63571">
        <ele>385</ele>
        <time>2017-03-14T15:11:06Z</time>
      </trkpt>
      <trkpt lat="44.42861" lon="1.63566">
        <ele>383</ele>
        <time>2017-03-14T15:11:19Z</time>
      </trkpt>
      <trkpt lat="44.42841" lon="1.63573">
        <ele>380</ele>
        <time>2017-03-14T15:11:41Z</time>
      </trkpt>
      <trkpt lat="44.42832" lon="1.63537">
        <ele>383</ele>
        <time>2017-03-14T15:12:08Z</time>
      </trkpt>
      <trkpt lat="44.42833" lon="1.63529">
        <ele>379</ele>
        <time>2017-03-14T15:12:12Z</time>
      </trkpt>
      <trkpt lat="44.42832" lon="1.63537">
        <ele>383</ele>
        <time>2017-03-14T15:12:18Z</time>
      </trkpt>
      <trkpt lat="44.42819" lon="1.63459">
        <ele>363</ele>
        <time>2017-03-14T15:13:30Z</time>
      </trkpt>
      <trkpt lat="44.42814" lon="1.63443">
        <ele>370</ele>
        <time>2017-03-14T15:13:37Z</time>
      </trkpt>
      <trkpt lat="44.42805" lon="1.63436">
        <ele>370</ele>
        <time>2017-03-14T15:13:48Z</time>
      </trkpt>
      <trkpt lat="44.42797" lon="1.63428">
        <ele>370</ele>
        <time>2017-03-14T15:13:51Z</time>
      </trkpt>
      <trkpt lat="44.42795" lon="1.63432">
        <ele>369</ele>
        <time>2017-03-14T15:14:00Z</time>
      </trkpt>
      <trkpt lat="44.42795" lon="1.63432">
        <ele>369</ele>
        <time>2017-03-14T15:14:05Z</time>
      </trkpt>
      <trkpt lat="44.42795" lon="1.63432">
        <ele>369</ele>
        <time>2017-03-14T15:14:06Z</time>
      </trkpt>
      <trkpt lat="44.42776" lon="1.63387">
        <ele>374</ele>
        <time>2017-03-14T15:14:47Z</time>
      </trkpt>
      <trkpt lat="44.42795" lon="1.63352">
        <ele>375</ele>
        <time>2017-03-14T15:15:37Z</time>
      </trkpt>
      <trkpt lat="44.42799" lon="1.63336">
        <ele>376</ele>
        <time>2017-03-14T15:15:43Z</time>
      </trkpt>
      <trkpt lat="44.42801" lon="1.63315">
        <ele>373</ele>
        <time>2017-03-14T15:15:51Z</time>
      </trkpt>
      <trkpt lat="44.42806" lon="1.63305">
        <ele>372</ele>
        <time>2017-03-14T15:15:57Z</time>
      </trkpt>
      <trkpt lat="44.42811" lon="1.63294">
        <ele>364</ele>
        <time>2017-03-14T15:16:05Z</time>
      </trkpt>
      <trkpt lat="44.42814" lon="1.63283">
        <ele>366</ele>
        <time>2017-03-14T15:16:10Z</time>
      </trkpt>
      <trkpt lat="44.42826" lon="1.63286">
        <ele>367</ele>
        <time>2017-03-14T15:16:22Z</time>
      </trkpt>
      <trkpt lat="44.42834" lon="1.63279">
        <ele>368</ele>
        <time>2017-03-14T15:16:32Z</time>
      </trkpt>
      <trkpt lat="44.42847" lon="1.63273">
        <ele>360</ele>
        <time>2017-03-14T15:16:48Z</time>
      </trkpt>
      <trkpt lat="44.42855" lon="1.63243">
        <ele>357</ele>
        <time>2017-03-14T15:17:08Z</time>
      </trkpt>
      <trkpt lat="44.42863" lon="1.6322">
        <ele>344</ele>
        <time>2017-03-14T15:17:24Z</time>
      </trkpt>
      <trkpt lat="44.42856" lon="1.63179">
        <ele>339</ele>
        <time>2017-03-14T15:17:37Z</time>
      </trkpt>
      <trkpt lat="44.42849" lon="1.63162">
        <ele>344</ele>
        <time>2017-03-14T15:17:43Z</time>
      </trkpt>
      <trkpt lat="44.42833" lon="1.63139">
        <ele>347</ele>
        <time>2017-03-14T15:17:53Z</time>
      </trkpt>
      <trkpt lat="44.42817" lon="1.63114">
        <ele>345</ele>
        <time>2017-03-14T15:18:01Z</time>
      </trkpt>
      <trkpt lat="44.42805" lon="1.63078">
        <ele>347</ele>
        <time>2017-03-14T15:18:10Z</time>
      </trkpt>
      <trkpt lat="44.42786" lon="1.63058">
        <ele>346</ele>
        <time>2017-03-14T15:18:19Z</time>
      </trkpt>
      <trkpt lat="44.42765" lon="1.63044">
        <ele>343</ele>
        <time>2017-03-14T15:18:26Z</time>
      </trkpt>
      <trkpt lat="44.42733" lon="1.63003">
        <ele>340</ele>
        <time>2017-03-14T15:18:31Z</time>
      </trkpt>
      <trkpt lat="44.42715" lon="1.62976">
        <ele>332</ele>
        <time>2017-03-14T15:18:43Z</time>
      </trkpt>
      <trkpt lat="44.42702" lon="1.62976">
        <ele>334</ele>
        <time>2017-03-14T15:18:50Z</time>
      </trkpt>
      <trkpt lat="44.42687" lon="1.62975">
        <ele>331</ele>
        <time>2017-03-14T15:18:57Z</time>
      </trkpt>
      <trkpt lat="44.42651" lon="1.6296">
        <ele>327</ele>
        <time>2017-03-14T15:19:05Z</time>
      </trkpt>
      <trkpt lat="44.42627" lon="1.62945">
        <ele>333</ele>
        <time>2017-03-14T15:19:10Z</time>
      </trkpt>
      <trkpt lat="44.42612" lon="1.62933">
        <ele>333</ele>
        <time>2017-03-14T15:19:19Z</time>
      </trkpt>
      <trkpt lat="44.42601" lon="1.62921">
        <ele>330</ele>
        <time>2017-03-14T15:19:25Z</time>
      </trkpt>
      <trkpt lat="44.42589" lon="1.62907">
        <ele>322</ele>
        <time>2017-03-14T15:19:33Z</time>
      </trkpt>
      <trkpt lat="44.42596" lon="1.62871">
        <ele>319</ele>
        <time>2017-03-14T15:19:42Z</time>
      </trkpt>
      <trkpt lat="44.42598" lon="1.62839">
        <ele>319</ele>
        <time>2017-03-14T15:19:47Z</time>
      </trkpt>
      <trkpt lat="44.42601" lon="1.62816">
        <ele>318</ele>
        <time>2017-03-14T15:19:55Z</time>
      </trkpt>
      <trkpt lat="44.42608" lon="1.62746">
        <ele>334</ele>
        <time>2017-03-14T15:20:11Z</time>
      </trkpt>
      <trkpt lat="44.42608" lon="1.6272">
        <ele>315</ele>
        <time>2017-03-14T15:20:16Z</time>
      </trkpt>
      <trkpt lat="44.42597" lon="1.6269">
        <ele>308</ele>
        <time>2017-03-14T15:20:28Z</time>
      </trkpt>
      <trkpt lat="44.42589" lon="1.62668">
        <ele>307</ele>
        <time>2017-03-14T15:20:36Z</time>
      </trkpt>
      <trkpt lat="44.42575" lon="1.62639">
        <ele>299</ele>
        <time>2017-03-14T15:20:44Z</time>
      </trkpt>
      <trkpt lat="44.42561" lon="1.62646">
        <ele>299</ele>
        <time>2017-03-14T15:20:52Z</time>
      </trkpt>
      <trkpt lat="44.42545" lon="1.62638">
        <ele>298</ele>
        <time>2017-03-14T15:21:03Z</time>
      </trkpt>
      <trkpt lat="44.4252" lon="1.62632">
        <ele>300</ele>
        <time>2017-03-14T15:21:18Z</time>
      </trkpt>
      <trkpt lat="44.42511" lon="1.62621">
        <ele>298</ele>
        <time>2017-03-14T15:21:24Z</time>
      </trkpt>
      <trkpt lat="44.42502" lon="1.62608">
        <ele>300</ele>
        <time>2017-03-14T15:21:32Z</time>
      </trkpt>
      <trkpt lat="44.42493" lon="1.62604">
        <ele>301</ele>
        <time>2017-03-14T15:21:40Z</time>
      </trkpt>
      <trkpt lat="44.42473" lon="1.6259">
        <ele>306</ele>
        <time>2017-03-14T15:21:52Z</time>
      </trkpt>
      <trkpt lat="44.42465" lon="1.62584">
        <ele>308</ele>
        <time>2017-03-14T15:22:03Z</time>
      </trkpt>
      <trkpt lat="44.42453" lon="1.6258">
        <ele>306</ele>
        <time>2017-03-14T15:22:16Z</time>
      </trkpt>
      <trkpt lat="44.42436" lon="1.62559">
        <ele>309</ele>
        <time>2017-03-14T15:22:33Z</time>
      </trkpt>
      <trkpt lat="44.424" lon="1.62496">
        <ele>307</ele>
        <time>2017-03-14T15:23:12Z</time>
      </trkpt>
      <trkpt lat="44.42392" lon="1.62497">
        <ele>316</ele>
        <time>2017-03-14T15:23:25Z</time>
      </trkpt>
      <trkpt lat="44.424" lon="1.62473">
        <ele>305</ele>
        <time>2017-03-14T15:23:32Z</time>
      </trkpt>
      <trkpt lat="44.42385" lon="1.62463">
        <ele>309</ele>
        <time>2017-03-14T15:23:44Z</time>
      </trkpt>
      <trkpt lat="44.42375" lon="1.62455">
        <ele>320</ele>
        <time>2017-03-14T15:23:58Z</time>
      </trkpt>
      <trkpt lat="44.42353" lon="1.62435">
        <ele>317</ele>
        <time>2017-03-14T15:24:15Z</time>
      </trkpt>
      <trkpt lat="44.42331" lon="1.62425">
        <ele>321</ele>
        <time>2017-03-14T15:24:31Z</time>
      </trkpt>
      <trkpt lat="44.42318" lon="1.6242">
        <ele>324</ele>
        <time>2017-03-14T15:24:43Z</time>
      </trkpt>
      <trkpt lat="44.42312" lon="1.62408">
        <ele>324</ele>
        <time>2017-03-14T15:24:51Z</time>
      </trkpt>
      <trkpt lat="44.42303" lon="1.624">
        <ele>319</ele>
        <time>2017-03-14T15:25:06Z</time>
      </trkpt>
      <trkpt lat="44.4229" lon="1.62386">
        <ele>326</ele>
        <time>2017-03-14T15:25:16Z</time>
      </trkpt>
      <trkpt lat="44.42277" lon="1.62381">
        <ele>324</ele>
        <time>2017-03-14T15:25:26Z</time>
      </trkpt>
      <trkpt lat="44.42273" lon="1.62376">
        <ele>327</ele>
        <time>2017-03-14T15:25:29Z</time>
      </trkpt>
      <trkpt lat="44.42264" lon="1.62366">
        <ele>328</ele>
        <time>2017-03-14T15:25:39Z</time>
      </trkpt>
      <trkpt lat="44.42251" lon="1.62355">
        <ele>334</ele>
        <time>2017-03-14T15:25:52Z</time>
      </trkpt>
      <trkpt lat="44.42242" lon="1.62335">
        <ele>340</ele>
        <time>2017-03-14T15:26:05Z</time>
      </trkpt>
      <trkpt lat="44.4224" lon="1.62335">
        <ele>341</ele>
        <time>2017-03-14T15:26:14Z</time>
      </trkpt>
      <trkpt lat="44.42224" lon="1.62321">
        <ele>341</ele>
        <time>2017-03-14T15:26:30Z</time>
      </trkpt>
      <trkpt lat="44.42215" lon="1.62304">
        <ele>343</ele>
        <time>2017-03-14T15:26:40Z</time>
      </trkpt>
      <trkpt lat="44.42206" lon="1.62299">
        <ele>344</ele>
        <time>2017-03-14T15:26:52Z</time>
      </trkpt>
      <trkpt lat="44.42197" lon="1.62285">
        <ele>345</ele>
        <time>2017-03-14T15:26:58Z</time>
      </trkpt>
      <trkpt lat="44.42194" lon="1.62266">
        <ele>346</ele>
        <time>2017-03-14T15:27:09Z</time>
      </trkpt>
      <trkpt lat="44.42194" lon="1.62261">
        <ele>346</ele>
        <time>2017-03-14T15:27:10Z</time>
      </trkpt>
      <trkpt lat="44.42194" lon="1.62266">
        <ele>346</ele>
        <time>2017-03-14T15:27:16Z</time>
      </trkpt>
      <trkpt lat="44.422" lon="1.62251">
        <ele>344</ele>
        <time>2017-03-14T15:27:26Z</time>
      </trkpt>
      <trkpt lat="44.42194" lon="1.62171">
        <ele>320</ele>
        <time>2017-03-14T15:28:13Z</time>
      </trkpt>
      <trkpt lat="44.42194" lon="1.62171">
        <ele>320</ele>
        <time>2017-03-14T15:28:18Z</time>
      </trkpt>
      <trkpt lat="44.42194" lon="1.62171">
        <ele>320</ele>
        <time>2017-03-14T15:28:19Z</time>
      </trkpt>
      <trkpt lat="44.42204" lon="1.62144">
        <ele>329</ele>
        <time>2017-03-14T15:28:31Z</time>
      </trkpt>
      <trkpt lat="44.42195" lon="1.62111">
        <ele>338</ele>
        <time>2017-03-14T15:28:46Z</time>
      </trkpt>
      <trkpt lat="44.42184" lon="1.62097">
        <ele>343</ele>
        <time>2017-03-14T15:28:55Z</time>
      </trkpt>
      <trkpt lat="44.42184" lon="1.62097">
        <ele>343</ele>
        <time>2017-03-14T15:29:00Z</time>
      </trkpt>
      <trkpt lat="44.42184" lon="1.62097">
        <ele>343</ele>
        <time>2017-03-14T15:29:01Z</time>
      </trkpt>
      <trkpt lat="44.42177" lon="1.62074">
        <ele>344</ele>
        <time>2017-03-14T15:29:15Z</time>
      </trkpt>
      <trkpt lat="44.42172" lon="1.62066">
        <ele>344</ele>
        <time>2017-03-14T15:29:21Z</time>
      </trkpt>
      <trkpt lat="44.42173" lon="1.62059">
        <ele>342</ele>
        <time>2017-03-14T15:29:25Z</time>
      </trkpt>
      <trkpt lat="44.42174" lon="1.62049">
        <ele>341</ele>
        <time>2017-03-14T15:29:37Z</time>
      </trkpt>
      <trkpt lat="44.4218" lon="1.62032">
        <ele>348</ele>
        <time>2017-03-14T15:29:45Z</time>
      </trkpt>
      <trkpt lat="44.4219" lon="1.62022">
        <ele>347</ele>
        <time>2017-03-14T15:29:55Z</time>
      </trkpt>
      <trkpt lat="44.42201" lon="1.62006">
        <ele>348</ele>
        <time>2017-03-14T15:30:07Z</time>
      </trkpt>
      <trkpt lat="44.42222" lon="1.6199">
        <ele>346</ele>
        <time>2017-03-14T15:30:23Z</time>
      </trkpt>
      <trkpt lat="44.42238" lon="1.61985">
        <ele>345</ele>
        <time>2017-03-14T15:30:36Z</time>
      </trkpt>
      <trkpt lat="44.42267" lon="1.61975">
        <ele>343</ele>
        <time>2017-03-14T15:30:54Z</time>
      </trkpt>
      <trkpt lat="44.4228" lon="1.61971">
        <ele>339</ele>
        <time>2017-03-14T15:31:05Z</time>
      </trkpt>
      <trkpt lat="44.42294" lon="1.61955">
        <ele>340</ele>
        <time>2017-03-14T15:31:17Z</time>
      </trkpt>
      <trkpt lat="44.42307" lon="1.61937">
        <ele>339</ele>
        <time>2017-03-14T15:31:30Z</time>
      </trkpt>
      <trkpt lat="44.42318" lon="1.61922">
        <ele>336</ele>
        <time>2017-03-14T15:31:39Z</time>
      </trkpt>
      <trkpt lat="44.42328" lon="1.61904">
        <ele>329</ele>
        <time>2017-03-14T15:31:50Z</time>
      </trkpt>
      <trkpt lat="44.4234" lon="1.61878">
        <ele>332</ele>
        <time>2017-03-14T15:32:03Z</time>
      </trkpt>
      <trkpt lat="44.42345" lon="1.61854">
        <ele>330</ele>
        <time>2017-03-14T15:32:15Z</time>
      </trkpt>
      <trkpt lat="44.42351" lon="1.61833">
        <ele>324</ele>
        <time>2017-03-14T15:32:28Z</time>
      </trkpt>
      <trkpt lat="44.42355" lon="1.61813">
        <ele>322</ele>
        <time>2017-03-14T15:32:41Z</time>
      </trkpt>
      <trkpt lat="44.42355" lon="1.61813">
        <ele>322</ele>
        <time>2017-03-14T15:32:49Z</time>
      </trkpt>
      <trkpt lat="44.42354" lon="1.6179">
        <ele>321</ele>
        <time>2017-03-14T15:32:59Z</time>
      </trkpt>
      <trkpt lat="44.42354" lon="1.61761">
        <ele>319</ele>
        <time>2017-03-14T15:33:13Z</time>
      </trkpt>
      <trkpt lat="44.42357" lon="1.61731">
        <ele>319</ele>
        <time>2017-03-14T15:33:24Z</time>
      </trkpt>
      <trkpt lat="44.42363" lon="1.61715">
        <ele>319</ele>
        <time>2017-03-14T15:33:30Z</time>
      </trkpt>
      <trkpt lat="44.42371" lon="1.61699">
        <ele>317</ele>
        <time>2017-03-14T15:33:40Z</time>
      </trkpt>
      <trkpt lat="44.42384" lon="1.61683">
        <ele>319</ele>
        <time>2017-03-14T15:33:50Z</time>
      </trkpt>
      <trkpt lat="44.42399" lon="1.6166">
        <ele>324</ele>
        <time>2017-03-14T15:34:04Z</time>
      </trkpt>
      <trkpt lat="44.42401" lon="1.61654">
        <ele>322</ele>
        <time>2017-03-14T15:34:08Z</time>
      </trkpt>
      <trkpt lat="44.42395" lon="1.61642">
        <ele>318</ele>
        <time>2017-03-14T15:34:18Z</time>
      </trkpt>
      <trkpt lat="44.42381" lon="1.61617">
        <ele>314</ele>
        <time>2017-03-14T15:34:32Z</time>
      </trkpt>
      <trkpt lat="44.42369" lon="1.61606">
        <ele>314</ele>
        <time>2017-03-14T15:34:42Z</time>
      </trkpt>
      <trkpt lat="44.42374" lon="1.61601">
        <ele>309</ele>
        <time>2017-03-14T15:34:51Z</time>
      </trkpt>
      <trkpt lat="44.42389" lon="1.61585">
        <ele>321</ele>
        <time>2017-03-14T15:35:08Z</time>
      </trkpt>
      <trkpt lat="44.42388" lon="1.61563">
        <ele>322</ele>
        <time>2017-03-14T15:35:19Z</time>
      </trkpt>
      <trkpt lat="44.42385" lon="1.61555">
        <ele>321</ele>
        <time>2017-03-14T15:35:23Z</time>
      </trkpt>
      <trkpt lat="44.42388" lon="1.61563">
        <ele>322</ele>
        <time>2017-03-14T15:35:29Z</time>
      </trkpt>
      <trkpt lat="44.42389" lon="1.6154">
        <ele>324</ele>
        <time>2017-03-14T15:35:39Z</time>
      </trkpt>
      <trkpt lat="44.4239" lon="1.6152">
        <ele>321</ele>
        <time>2017-03-14T15:35:48Z</time>
      </trkpt>
      <trkpt lat="44.42396" lon="1.61506">
        <ele>321</ele>
        <time>2017-03-14T15:36:02Z</time>
      </trkpt>
      <trkpt lat="44.42397" lon="1.61498">
        <ele>324</ele>
        <time>2017-03-14T15:36:10Z</time>
      </trkpt>
      <trkpt lat="44.42399" lon="1.61484">
        <ele>327</ele>
        <time>2017-03-14T15:36:21Z</time>
      </trkpt>
      <trkpt lat="44.42398" lon="1.61463">
        <ele>329</ele>
        <time>2017-03-14T15:36:31Z</time>
      </trkpt>
      <trkpt lat="44.42398" lon="1.61456">
        <ele>331</ele>
        <time>2017-03-14T15:36:34Z</time>
      </trkpt>
      <trkpt lat="44.42397" lon="1.61451">
        <ele>335</ele>
        <time>2017-03-14T15:36:49Z</time>
      </trkpt>
      <trkpt lat="44.42401" lon="1.61431">
        <ele>338</ele>
        <time>2017-03-14T15:37:04Z</time>
      </trkpt>
      <trkpt lat="44.42396" lon="1.61403">
        <ele>335</ele>
        <time>2017-03-14T15:37:15Z</time>
      </trkpt>
      <trkpt lat="44.42395" lon="1.61371">
        <ele>338</ele>
        <time>2017-03-14T15:37:28Z</time>
      </trkpt>
      <trkpt lat="44.42395" lon="1.61371">
        <ele>338</ele>
        <time>2017-03-14T15:37:33Z</time>
      </trkpt>
      <trkpt lat="44.42395" lon="1.61371">
        <ele>338</ele>
        <time>2017-03-14T15:37:34Z</time>
      </trkpt>
      <trkpt lat="44.42398" lon="1.61349">
        <ele>348</ele>
        <time>2017-03-14T15:37:44Z</time>
      </trkpt>
      <trkpt lat="44.424" lon="1.61335">
        <ele>341</ele>
        <time>2017-03-14T15:37:52Z</time>
      </trkpt>
      <trkpt lat="44.42406" lon="1.6133">
        <ele>340</ele>
        <time>2017-03-14T15:38:03Z</time>
      </trkpt>
      <trkpt lat="44.42414" lon="1.61314">
        <ele>338</ele>
        <time>2017-03-14T15:38:18Z</time>
      </trkpt>
      <trkpt lat="44.42413" lon="1.61294">
        <ele>333</ele>
        <time>2017-03-14T15:38:34Z</time>
      </trkpt>
      <trkpt lat="44.4242" lon="1.61271">
        <ele>341</ele>
        <time>2017-03-14T15:38:50Z</time>
      </trkpt>
      <trkpt lat="44.4242" lon="1.61271">
        <ele>341</ele>
        <time>2017-03-14T15:38:57Z</time>
      </trkpt>
      <trkpt lat="44.4242" lon="1.61271">
        <ele>341</ele>
        <time>2017-03-14T15:38:59Z</time>
      </trkpt>
      <trkpt lat="44.42425" lon="1.61251">
        <ele>340</ele>
        <time>2017-03-14T15:39:06Z</time>
      </trkpt>
      <trkpt lat="44.42426" lon="1.61229">
        <ele>339</ele>
        <time>2017-03-14T15:39:14Z</time>
      </trkpt>
      <trkpt lat="44.42429" lon="1.61204">
        <ele>342</ele>
        <time>2017-03-14T15:39:30Z</time>
      </trkpt>
      <trkpt lat="44.42433" lon="1.61178">
        <ele>337</ele>
        <time>2017-03-14T15:39:46Z</time>
      </trkpt>
      <trkpt lat="44.42434" lon="1.61163">
        <ele>336</ele>
        <time>2017-03-14T15:39:55Z</time>
      </trkpt>
      <trkpt lat="44.42436" lon="1.6114">
        <ele>331</ele>
        <time>2017-03-14T15:40:04Z</time>
      </trkpt>
      <trkpt lat="44.42439" lon="1.61128">
        <ele>335</ele>
        <time>2017-03-14T15:40:10Z</time>
      </trkpt>
      <trkpt lat="44.42441" lon="1.61112">
        <ele>338</ele>
        <time>2017-03-14T15:40:17Z</time>
      </trkpt>
      <trkpt lat="44.42444" lon="1.61092">
        <ele>340</ele>
        <time>2017-03-14T15:40:27Z</time>
      </trkpt>
      <trkpt lat="44.42453" lon="1.61075">
        <ele>339</ele>
        <time>2017-03-14T15:40:35Z</time>
      </trkpt>
      <trkpt lat="44.42458" lon="1.6105">
        <ele>341</ele>
        <time>2017-03-14T15:40:43Z</time>
      </trkpt>
      <trkpt lat="44.4246" lon="1.61034">
        <ele>339</ele>
        <time>2017-03-14T15:40:49Z</time>
      </trkpt>
      <trkpt lat="44.42462" lon="1.61009">
        <ele>340</ele>
        <time>2017-03-14T15:41:00Z</time>
      </trkpt>
      <trkpt lat="44.42467" lon="1.60954">
        <ele>339</ele>
        <time>2017-03-14T15:41:16Z</time>
      </trkpt>
      <trkpt lat="44.42472" lon="1.60928">
        <ele>337</ele>
        <time>2017-03-14T15:41:22Z</time>
      </trkpt>
      <trkpt lat="44.42479" lon="1.60894">
        <ele>339</ele>
        <time>2017-03-14T15:41:30Z</time>
      </trkpt>
      <trkpt lat="44.42488" lon="1.60875">
        <ele>336</ele>
        <time>2017-03-14T15:41:39Z</time>
      </trkpt>
      <trkpt lat="44.42496" lon="1.6083">
        <ele>338</ele>
        <time>2017-03-14T15:41:49Z</time>
      </trkpt>
      <trkpt lat="44.42508" lon="1.60794">
        <ele>341</ele>
        <time>2017-03-14T15:41:59Z</time>
      </trkpt>
      <trkpt lat="44.42521" lon="1.60777">
        <ele>342</ele>
        <time>2017-03-14T15:42:06Z</time>
      </trkpt>
      <trkpt lat="44.42528" lon="1.60752">
        <ele>343</ele>
        <time>2017-03-14T15:42:15Z</time>
      </trkpt>
      <trkpt lat="44.42527" lon="1.60714">
        <ele>340</ele>
        <time>2017-03-14T15:42:27Z</time>
      </trkpt>
      <trkpt lat="44.42531" lon="1.60688">
        <ele>340</ele>
        <time>2017-03-14T15:42:33Z</time>
      </trkpt>
      <trkpt lat="44.42542" lon="1.60666">
        <ele>341</ele>
        <time>2017-03-14T15:42:40Z</time>
      </trkpt>
      <trkpt lat="44.42556" lon="1.60641">
        <ele>342</ele>
        <time>2017-03-14T15:42:49Z</time>
      </trkpt>
      <trkpt lat="44.42569" lon="1.60621">
        <ele>342</ele>
        <time>2017-03-14T15:42:57Z</time>
      </trkpt>
      <trkpt lat="44.42583" lon="1.60599">
        <ele>332</ele>
        <time>2017-03-14T15:43:10Z</time>
      </trkpt>
      <trkpt lat="44.42606" lon="1.60583">
        <ele>328</ele>
        <time>2017-03-14T15:43:29Z</time>
      </trkpt>
      <trkpt lat="44.42617" lon="1.60575">
        <ele>325</ele>
        <time>2017-03-14T15:43:40Z</time>
      </trkpt>
      <trkpt lat="44.42629" lon="1.60568">
        <ele>324</ele>
        <time>2017-03-14T15:43:52Z</time>
      </trkpt>
      <trkpt lat="44.42649" lon="1.60563">
        <ele>319</ele>
        <time>2017-03-14T15:44:09Z</time>
      </trkpt>
      <trkpt lat="44.42661" lon="1.60556">
        <ele>317</ele>
        <time>2017-03-14T15:44:18Z</time>
      </trkpt>
      <trkpt lat="44.42677" lon="1.6054">
        <ele>311</ele>
        <time>2017-03-14T15:44:34Z</time>
      </trkpt>
      <trkpt lat="44.42696" lon="1.60525">
        <ele>309</ele>
        <time>2017-03-14T15:44:49Z</time>
      </trkpt>
      <trkpt lat="44.42714" lon="1.6051">
        <ele>311</ele>
        <time>2017-03-14T15:45:03Z</time>
      </trkpt>
      <trkpt lat="44.42735" lon="1.60505">
        <ele>307</ele>
        <time>2017-03-14T15:45:23Z</time>
      </trkpt>
      <trkpt lat="44.42743" lon="1.6049">
        <ele>305</ele>
        <time>2017-03-14T15:45:37Z</time>
      </trkpt>
      <trkpt lat="44.42744" lon="1.60487">
        <ele>305</ele>
        <time>2017-03-14T15:45:45Z</time>
      </trkpt>
      <trkpt lat="44.42745" lon="1.60463">
        <ele>300</ele>
        <time>2017-03-14T15:46:03Z</time>
      </trkpt>
      <trkpt lat="44.42741" lon="1.60415">
        <ele>283</ele>
        <time>2017-03-14T15:46:23Z</time>
      </trkpt>
      <trkpt lat="44.42753" lon="1.60399">
        <ele>300</ele>
        <time>2017-03-14T15:46:34Z</time>
      </trkpt>
      <trkpt lat="44.42752" lon="1.60392">
        <ele>299</ele>
        <time>2017-03-14T15:46:38Z</time>
      </trkpt>
      <trkpt lat="44.42753" lon="1.60399">
        <ele>300</ele>
        <time>2017-03-14T15:46:45Z</time>
      </trkpt>
      <trkpt lat="44.42736" lon="1.60401">
        <ele>299</ele>
        <time>2017-03-14T15:46:58Z</time>
      </trkpt>
      <trkpt lat="44.42719" lon="1.6042">
        <ele>295</ele>
        <time>2017-03-14T15:47:15Z</time>
      </trkpt>
      <trkpt lat="44.42704" lon="1.60432">
        <ele>292</ele>
        <time>2017-03-14T15:47:28Z</time>
      </trkpt>
      <trkpt lat="44.42687" lon="1.60429">
        <ele>292</ele>
        <time>2017-03-14T15:47:40Z</time>
      </trkpt>
      <trkpt lat="44.42641" lon="1.60414">
        <ele>289</ele>
        <time>2017-03-14T15:47:56Z</time>
      </trkpt>
      <trkpt lat="44.42607" lon="1.60412">
        <ele>290</ele>
        <time>2017-03-14T15:48:02Z</time>
      </trkpt>
      <trkpt lat="44.42563" lon="1.60401">
        <ele>294</ele>
        <time>2017-03-14T15:48:09Z</time>
      </trkpt>
      <trkpt lat="44.42531" lon="1.60387">
        <ele>291</ele>
        <time>2017-03-14T15:48:16Z</time>
      </trkpt>
      <trkpt lat="44.42506" lon="1.60385">
        <ele>288</ele>
        <time>2017-03-14T15:48:22Z</time>
      </trkpt>
      <trkpt lat="44.4249" lon="1.60374">
        <ele>287</ele>
        <time>2017-03-14T15:48:29Z</time>
      </trkpt>
      <trkpt lat="44.42498" lon="1.60353">
        <ele>287</ele>
        <time>2017-03-14T15:48:39Z</time>
      </trkpt>
      <trkpt lat="44.42504" lon="1.60333">
        <ele>290</ele>
        <time>2017-03-14T15:48:46Z</time>
      </trkpt>
      <trkpt lat="44.42502" lon="1.60315">
        <ele>288</ele>
        <time>2017-03-14T15:48:52Z</time>
      </trkpt>
      <trkpt lat="44.4252" lon="1.60281">
        <ele>284</ele>
        <time>2017-03-14T15:49:12Z</time>
      </trkpt>
      <trkpt lat="44.4253" lon="1.60247">
        <ele>311</ele>
        <time>2017-03-14T15:49:30Z</time>
      </trkpt>
      <trkpt lat="44.42526" lon="1.60226">
        <ele>315</ele>
        <time>2017-03-14T15:49:38Z</time>
      </trkpt>
      <trkpt lat="44.42544" lon="1.60217">
        <ele>318</ele>
        <time>2017-03-14T15:49:51Z</time>
      </trkpt>
      <trkpt lat="44.42564" lon="1.60203">
        <ele>321</ele>
        <time>2017-03-14T15:50:07Z</time>
      </trkpt>
      <trkpt lat="44.42572" lon="1.60203">
        <ele>319</ele>
        <time>2017-03-14T15:50:11Z</time>
      </trkpt>
      <trkpt lat="44.42579" lon="1.60189">
        <ele>319</ele>
        <time>2017-03-14T15:50:23Z</time>
      </trkpt>
      <trkpt lat="44.4259" lon="1.6017">
        <ele>317</ele>
        <time>2017-03-14T15:50:33Z</time>
      </trkpt>
      <trkpt lat="44.42597" lon="1.60145">
        <ele>319</ele>
        <time>2017-03-14T15:50:52Z</time>
      </trkpt>
      <trkpt lat="44.42611" lon="1.60142">
        <ele>324</ele>
        <time>2017-03-14T15:51:01Z</time>
      </trkpt>
      <trkpt lat="44.42611" lon="1.60142">
        <ele>324</ele>
        <time>2017-03-14T15:51:06Z</time>
      </trkpt>
      <trkpt lat="44.42611" lon="1.60142">
        <ele>324</ele>
        <time>2017-03-14T15:51:07Z</time>
      </trkpt>
      <trkpt lat="44.42658" lon="1.60149">
        <ele>330</ele>
        <time>2017-03-14T15:51:36Z</time>
      </trkpt>
      <trkpt lat="44.42663" lon="1.60145">
        <ele>339</ele>
        <time>2017-03-14T15:51:38Z</time>
      </trkpt>
      <trkpt lat="44.4267" lon="1.60155">
        <ele>337</ele>
        <time>2017-03-14T15:51:48Z</time>
      </trkpt>
      <trkpt lat="44.42686" lon="1.60153">
        <ele>337</ele>
        <time>2017-03-14T15:51:59Z</time>
      </trkpt>
      <trkpt lat="44.42702" lon="1.60153">
        <ele>334</ele>
        <time>2017-03-14T15:52:11Z</time>
      </trkpt>
      <trkpt lat="44.42716" lon="1.60151">
        <ele>333</ele>
        <time>2017-03-14T15:52:23Z</time>
      </trkpt>
      <trkpt lat="44.42738" lon="1.60149">
        <ele>335</ele>
        <time>2017-03-14T15:52:39Z</time>
      </trkpt>
      <trkpt lat="44.42738" lon="1.60149">
        <ele>335</ele>
        <time>2017-03-14T15:52:44Z</time>
      </trkpt>
      <trkpt lat="44.42738" lon="1.60149">
        <ele>335</ele>
        <time>2017-03-14T15:52:45Z</time>
      </trkpt>
      <trkpt lat="44.4275" lon="1.60147">
        <ele>339</ele>
        <time>2017-03-14T15:52:50Z</time>
      </trkpt>
      <trkpt lat="44.42759" lon="1.60147">
        <ele>340</ele>
        <time>2017-03-14T15:52:56Z</time>
      </trkpt>
      <trkpt lat="44.42759" lon="1.60147">
        <ele>340</ele>
        <time>2017-03-14T15:53:01Z</time>
      </trkpt>
      <trkpt lat="44.42768" lon="1.60148">
        <ele>341</ele>
        <time>2017-03-14T15:53:07Z</time>
      </trkpt>
      <trkpt lat="44.42782" lon="1.6015">
        <ele>341</ele>
        <time>2017-03-14T15:53:20Z</time>
      </trkpt>
      <trkpt lat="44.42796" lon="1.60141">
        <ele>342</ele>
        <time>2017-03-14T15:53:32Z</time>
      </trkpt>
      <trkpt lat="44.42796" lon="1.60141">
        <ele>342</ele>
        <time>2017-03-14T15:53:38Z</time>
      </trkpt>
      <trkpt lat="44.428" lon="1.60132">
        <ele>343</ele>
        <time>2017-03-14T15:53:40Z</time>
      </trkpt>
      <trkpt lat="44.42806" lon="1.6011">
        <ele>345</ele>
        <time>2017-03-14T15:53:51Z</time>
      </trkpt>
      <trkpt lat="44.42817" lon="1.60101">
        <ele>345</ele>
        <time>2017-03-14T15:54:07Z</time>
      </trkpt>
      <trkpt lat="44.42822" lon="1.60092">
        <ele>342</ele>
        <time>2017-03-14T15:54:18Z</time>
      </trkpt>
      <trkpt lat="44.42836" lon="1.60084">
        <ele>350</ele>
        <time>2017-03-14T15:54:31Z</time>
      </trkpt>
      <trkpt lat="44.42856" lon="1.60077">
        <ele>355</ele>
        <time>2017-03-14T15:54:47Z</time>
      </trkpt>
      <trkpt lat="44.42867" lon="1.60073">
        <ele>358</ele>
        <time>2017-03-14T15:54:55Z</time>
      </trkpt>
      <trkpt lat="44.42884" lon="1.60061">
        <ele>358</ele>
        <time>2017-03-14T15:55:12Z</time>
      </trkpt>
      <trkpt lat="44.42889" lon="1.6004">
        <ele>360</ele>
        <time>2017-03-14T15:55:28Z</time>
      </trkpt>
      <trkpt lat="44.42898" lon="1.60021">
        <ele>359</ele>
        <time>2017-03-14T15:55:40Z</time>
      </trkpt>
      <trkpt lat="44.42909" lon="1.6001">
        <ele>359</ele>
        <time>2017-03-14T15:55:54Z</time>
      </trkpt>
      <trkpt lat="44.42963" lon="1.59969">
        <ele>372</ele>
        <time>2017-03-14T15:56:45Z</time>
      </trkpt>
      <trkpt lat="44.42976" lon="1.59959">
        <ele>365</ele>
        <time>2017-03-14T15:56:58Z</time>
      </trkpt>
      <trkpt lat="44.42988" lon="1.59951">
        <ele>376</ele>
        <time>2017-03-14T15:57:07Z</time>
      </trkpt>
      <trkpt lat="44.42988" lon="1.59951">
        <ele>376</ele>
        <time>2017-03-14T15:57:12Z</time>
      </trkpt>
      <trkpt lat="44.42998" lon="1.59954">
        <ele>372</ele>
        <time>2017-03-14T15:57:17Z</time>
      </trkpt>
      <trkpt lat="44.43008" lon="1.59954">
        <ele>369</ele>
        <time>2017-03-14T15:57:29Z</time>
      </trkpt>
      <trkpt lat="44.43034" lon="1.59953">
        <ele>372</ele>
        <time>2017-03-14T15:57:48Z</time>
      </trkpt>
      <trkpt lat="44.43052" lon="1.59958">
        <ele>374</ele>
        <time>2017-03-14T15:58:02Z</time>
      </trkpt>
      <trkpt lat="44.43079" lon="1.59975">
        <ele>371</ele>
        <time>2017-03-14T15:58:17Z</time>
      </trkpt>
      <trkpt lat="44.43107" lon="1.59991">
        <ele>371</ele>
        <time>2017-03-14T15:58:29Z</time>
      </trkpt>
      <trkpt lat="44.43116" lon="1.59999">
        <ele>366</ele>
        <time>2017-03-14T15:58:35Z</time>
      </trkpt>
      <trkpt lat="44.4313" lon="1.60007">
        <ele>361</ele>
        <time>2017-03-14T15:58:43Z</time>
      </trkpt>
      <trkpt lat="44.43158" lon="1.60006">
        <ele>361</ele>
        <time>2017-03-14T15:58:52Z</time>
      </trkpt>
      <trkpt lat="44.43174" lon="1.6001">
        <ele>361</ele>
        <time>2017-03-14T15:58:59Z</time>
      </trkpt>
      <trkpt lat="44.43204" lon="1.60027">
        <ele>364</ele>
        <time>2017-03-14T15:59:09Z</time>
      </trkpt>
      <trkpt lat="44.43217" lon="1.60048">
        <ele>364</ele>
        <time>2017-03-14T15:59:18Z</time>
      </trkpt>
      <trkpt lat="44.43233" lon="1.60072">
        <ele>365</ele>
        <time>2017-03-14T15:59:27Z</time>
      </trkpt>
      <trkpt lat="44.43244" lon="1.60088">
        <ele>364</ele>
        <time>2017-03-14T15:59:34Z</time>
      </trkpt>
      <trkpt lat="44.43268" lon="1.60119">
        <ele>367</ele>
        <time>2017-03-14T15:59:45Z</time>
      </trkpt>
      <trkpt lat="44.43277" lon="1.6013">
        <ele>365</ele>
        <time>2017-03-14T15:59:53Z</time>
      </trkpt>
      <trkpt lat="44.43308" lon="1.60167">
        <ele>370</ele>
        <time>2017-03-14T16:00:04Z</time>
      </trkpt>
      <trkpt lat="44.43331" lon="1.60175">
        <ele>374</ele>
        <time>2017-03-14T16:00:12Z</time>
      </trkpt>
      <trkpt lat="44.43349" lon="1.60174">
        <ele>377</ele>
        <time>2017-03-14T16:00:21Z</time>
      </trkpt>
      <trkpt lat="44.43361" lon="1.60161">
        <ele>377</ele>
        <time>2017-03-14T16:00:32Z</time>
      </trkpt>
      <trkpt lat="44.43374" lon="1.60184">
        <ele>378</ele>
        <time>2017-03-14T16:00:48Z</time>
      </trkpt>
      <trkpt lat="44.43383" lon="1.60208">
        <ele>376</ele>
        <time>2017-03-14T16:01:06Z</time>
      </trkpt>
      <trkpt lat="44.43392" lon="1.60231">
        <ele>381</ele>
        <time>2017-03-14T16:01:25Z</time>
      </trkpt>
      <trkpt lat="44.43403" lon="1.60268">
        <ele>379</ele>
        <time>2017-03-14T16:01:43Z</time>
      </trkpt>
      <trkpt lat="44.43415" lon="1.60299">
        <ele>379</ele>
        <time>2017-03-14T16:02:02Z</time>
      </trkpt>
      <trkpt lat="44.43415" lon="1.60312">
        <ele>380</ele>
        <time>2017-03-14T16:02:10Z</time>
      </trkpt>
      <trkpt lat="44.43425" lon="1.60345">
        <ele>377</ele>
        <time>2017-03-14T16:02:26Z</time>
      </trkpt>
      <trkpt lat="44.43441" lon="1.60382">
        <ele>376</ele>
        <time>2017-03-14T16:02:35Z</time>
      </trkpt>
      <trkpt lat="44.43462" lon="1.60401">
        <ele>377</ele>
        <time>2017-03-14T16:02:41Z</time>
      </trkpt>
      <trkpt lat="44.43475" lon="1.60421">
        <ele>381</ele>
        <time>2017-03-14T16:02:46Z</time>
      </trkpt>
      <trkpt lat="44.43497" lon="1.60437">
        <ele>384</ele>
        <time>2017-03-14T16:02:53Z</time>
      </trkpt>
      <trkpt lat="44.43515" lon="1.60445">
        <ele>381</ele>
        <time>2017-03-14T16:02:58Z</time>
      </trkpt>
      <trkpt lat="44.43527" lon="1.60452">
        <ele>378</ele>
        <time>2017-03-14T16:03:03Z</time>
      </trkpt>
      <trkpt lat="44.43547" lon="1.60471">
        <ele>378</ele>
        <time>2017-03-14T16:03:09Z</time>
      </trkpt>
      <trkpt lat="44.43566" lon="1.60481">
        <ele>378</ele>
        <time>2017-03-14T16:03:15Z</time>
      </trkpt>
      <trkpt lat="44.43584" lon="1.60493">
        <ele>376</ele>
        <time>2017-03-14T16:03:22Z</time>
      </trkpt>
      <trkpt lat="44.43615" lon="1.60504">
        <ele>378</ele>
        <time>2017-03-14T16:03:30Z</time>
      </trkpt>
      <trkpt lat="44.43634" lon="1.60516">
        <ele>381</ele>
        <time>2017-03-14T16:03:37Z</time>
      </trkpt>
      <trkpt lat="44.4364" lon="1.60536">
        <ele>384</ele>
        <time>2017-03-14T16:03:45Z</time>
      </trkpt>
      <trkpt lat="44.43644" lon="1.60557">
        <ele>387</ele>
        <time>2017-03-14T16:03:56Z</time>
      </trkpt>
      <trkpt lat="44.43642" lon="1.60579">
        <ele>387</ele>
        <time>2017-03-14T16:04:10Z</time>
      </trkpt>
      <trkpt lat="44.43635" lon="1.60602">
        <ele>382</ele>
        <time>2017-03-14T16:04:24Z</time>
      </trkpt>
      <trkpt lat="44.43628" lon="1.60621">
        <ele>384</ele>
        <time>2017-03-14T16:04:34Z</time>
      </trkpt>
      <trkpt lat="44.43624" lon="1.60647">
        <ele>380</ele>
        <time>2017-03-14T16:04:51Z</time>
      </trkpt>
      <trkpt lat="44.43621" lon="1.60662">
        <ele>381</ele>
        <time>2017-03-14T16:05:00Z</time>
      </trkpt>
      <trkpt lat="44.43618" lon="1.60689">
        <ele>384</ele>
        <time>2017-03-14T16:05:13Z</time>
      </trkpt>
      <trkpt lat="44.43618" lon="1.60689">
        <ele>384</ele>
        <time>2017-03-14T16:05:20Z</time>
      </trkpt>
      <trkpt lat="44.43605" lon="1.60704">
        <ele>383</ele>
        <time>2017-03-14T16:05:29Z</time>
      </trkpt>
      <trkpt lat="44.43599" lon="1.60719">
        <ele>380</ele>
        <time>2017-03-14T16:05:40Z</time>
      </trkpt>
      <trkpt lat="44.43593" lon="1.60733">
        <ele>378</ele>
        <time>2017-03-14T16:05:50Z</time>
      </trkpt>
      <trkpt lat="44.43593" lon="1.60733">
        <ele>378</ele>
        <time>2017-03-14T16:05:57Z</time>
      </trkpt>
      <trkpt lat="44.43592" lon="1.60753">
        <ele>388</ele>
        <time>2017-03-14T16:06:01Z</time>
      </trkpt>
      <trkpt lat="44.43567" lon="1.60819">
        <ele>389</ele>
        <time>2017-03-14T16:06:55Z</time>
      </trkpt>
      <trkpt lat="44.43585" lon="1.60856">
        <ele>402</ele>
        <time>2017-03-14T16:07:12Z</time>
      </trkpt>
      <trkpt lat="44.43595" lon="1.60869">
        <ele>399</ele>
        <time>2017-03-14T16:07:23Z</time>
      </trkpt>
      <trkpt lat="44.43607" lon="1.60877">
        <ele>398</ele>
        <time>2017-03-14T16:07:36Z</time>
      </trkpt>
      <trkpt lat="44.43623" lon="1.6088">
        <ele>394</ele>
        <time>2017-03-14T16:07:51Z</time>
      </trkpt>
      <trkpt lat="44.43627" lon="1.60894">
        <ele>398</ele>
        <time>2017-03-14T16:08:01Z</time>
      </trkpt>
      <trkpt lat="44.43637" lon="1.60915">
        <ele>399</ele>
        <time>2017-03-14T16:08:11Z</time>
      </trkpt>
      <trkpt lat="44.43637" lon="1.60915">
        <ele>399</ele>
        <time>2017-03-14T16:08:16Z</time>
      </trkpt>
      <trkpt lat="44.43637" lon="1.60915">
        <ele>399</ele>
        <time>2017-03-14T16:08:17Z</time>
      </trkpt>
      <trkpt lat="44.43645" lon="1.60937">
        <ele>397</ele>
        <time>2017-03-14T16:08:28Z</time>
      </trkpt>
      <trkpt lat="44.43657" lon="1.60971">
        <ele>396</ele>
        <time>2017-03-14T16:08:43Z</time>
      </trkpt>
      <trkpt lat="44.4366" lon="1.6098">
        <ele>395</ele>
        <time>2017-03-14T16:08:52Z</time>
      </trkpt>
      <trkpt lat="44.43663" lon="1.61009">
        <ele>394</ele>
        <time>2017-03-14T16:09:10Z</time>
      </trkpt>
      <trkpt lat="44.43631" lon="1.61063">
        <ele>395</ele>
        <time>2017-03-14T16:09:27Z</time>
      </trkpt>
      <trkpt lat="44.43617" lon="1.61087">
        <ele>395</ele>
        <time>2017-03-14T16:09:34Z</time>
      </trkpt>
      <trkpt lat="44.43595" lon="1.61122">
        <ele>396</ele>
        <time>2017-03-14T16:09:44Z</time>
      </trkpt>
      <trkpt lat="44.4357" lon="1.6116">
        <ele>397</ele>
        <time>2017-03-14T16:09:55Z</time>
      </trkpt>
      <trkpt lat="44.4356" lon="1.61175">
        <ele>397</ele>
        <time>2017-03-14T16:10:01Z</time>
      </trkpt>
      <trkpt lat="44.43546" lon="1.61196">
        <ele>398</ele>
        <time>2017-03-14T16:10:09Z</time>
      </trkpt>
      <trkpt lat="44.43522" lon="1.61222">
        <ele>397</ele>
        <time>2017-03-14T16:10:18Z</time>
      </trkpt>
      <trkpt lat="44.43501" lon="1.61236">
        <ele>393</ele>
        <time>2017-03-14T16:10:27Z</time>
      </trkpt>
      <trkpt lat="44.43475" lon="1.61238">
        <ele>389</ele>
        <time>2017-03-14T16:10:37Z</time>
      </trkpt>
      <trkpt lat="44.43439" lon="1.61254">
        <ele>389</ele>
        <time>2017-03-14T16:10:46Z</time>
      </trkpt>
      <trkpt lat="44.43427" lon="1.61258">
        <ele>389</ele>
        <time>2017-03-14T16:10:53Z</time>
      </trkpt>
      <trkpt lat="44.43405" lon="1.61265">
        <ele>390</ele>
        <time>2017-03-14T16:11:01Z</time>
      </trkpt>
      <trkpt lat="44.43386" lon="1.61274">
        <ele>390</ele>
        <time>2017-03-14T16:11:06Z</time>
      </trkpt>
      <trkpt lat="44.43372" lon="1.61276">
        <ele>391</ele>
        <time>2017-03-14T16:11:13Z</time>
      </trkpt>
      <trkpt lat="44.43354" lon="1.61281">
        <ele>393</ele>
        <time>2017-03-14T16:11:20Z</time>
      </trkpt>
      <trkpt lat="44.43336" lon="1.61286">
        <ele>391</ele>
        <time>2017-03-14T16:11:28Z</time>
      </trkpt>
      <trkpt lat="44.43317" lon="1.61289">
        <ele>386</ele>
        <time>2017-03-14T16:11:37Z</time>
      </trkpt>
      <trkpt lat="44.43298" lon="1.61304">
        <ele>384</ele>
        <time>2017-03-14T16:11:45Z</time>
      </trkpt>
      <trkpt lat="44.43281" lon="1.61325">
        <ele>382</ele>
        <time>2017-03-14T16:11:56Z</time>
      </trkpt>
      <trkpt lat="44.43266" lon="1.6135">
        <ele>380</ele>
        <time>2017-03-14T16:12:05Z</time>
      </trkpt>
      <trkpt lat="44.4326" lon="1.61374">
        <ele>373</ele>
        <time>2017-03-14T16:12:12Z</time>
      </trkpt>
      <trkpt lat="44.43252" lon="1.61405">
        <ele>376</ele>
        <time>2017-03-14T16:12:18Z</time>
      </trkpt>
      <trkpt lat="44.43247" lon="1.61424">
        <ele>376</ele>
        <time>2017-03-14T16:12:27Z</time>
      </trkpt>
      <trkpt lat="44.43252" lon="1.61467">
        <ele>378</ele>
        <time>2017-03-14T16:12:39Z</time>
      </trkpt>
      <trkpt lat="44.4325" lon="1.61488">
        <ele>374</ele>
        <time>2017-03-14T16:12:46Z</time>
      </trkpt>
      <trkpt lat="44.43253" lon="1.61494">
        <ele>373</ele>
        <time>2017-03-14T16:12:49Z</time>
      </trkpt>
      <trkpt lat="44.43254" lon="1.61496">
        <ele>374</ele>
        <time>2017-03-14T16:12:57Z</time>
      </trkpt>
      <trkpt lat="44.43246" lon="1.6152">
        <ele>370</ele>
        <time>2017-03-14T16:13:07Z</time>
      </trkpt>
      <trkpt lat="44.43237" lon="1.61538">
        <ele>370</ele>
        <time>2017-03-14T16:13:15Z</time>
      </trkpt>
      <trkpt lat="44.43236" lon="1.61549">
        <ele>363</ele>
        <time>2017-03-14T16:13:21Z</time>
      </trkpt>
      <trkpt lat="44.43244" lon="1.61581">
        <ele>364</ele>
        <time>2017-03-14T16:13:36Z</time>
      </trkpt>
      <trkpt lat="44.4326" lon="1.61588">
        <ele>359</ele>
        <time>2017-03-14T16:13:48Z</time>
      </trkpt>
      <trkpt lat="44.43299" lon="1.61619">
        <ele>354</ele>
        <time>2017-03-14T16:14:00Z</time>
      </trkpt>
      <trkpt lat="44.43324" lon="1.61663">
        <ele>352</ele>
        <time>2017-03-14T16:14:07Z</time>
      </trkpt>
      <trkpt lat="44.43336" lon="1.61693">
        <ele>351</ele>
        <time>2017-03-14T16:14:12Z</time>
      </trkpt>
      <trkpt lat="44.4335" lon="1.6173">
        <ele>351</ele>
        <time>2017-03-14T16:14:17Z</time>
      </trkpt>
      <trkpt lat="44.43375" lon="1.61787">
        <ele>353</ele>
        <time>2017-03-14T16:14:23Z</time>
      </trkpt>
      <trkpt lat="44.43392" lon="1.61816">
        <ele>354</ele>
        <time>2017-03-14T16:14:26Z</time>
      </trkpt>
      <trkpt lat="44.43405" lon="1.61834">
        <ele>350</ele>
        <time>2017-03-14T16:14:29Z</time>
      </trkpt>
      <trkpt lat="44.43433" lon="1.61897">
        <ele>349</ele>
        <time>2017-03-14T16:14:35Z</time>
      </trkpt>
      <trkpt lat="44.43462" lon="1.61938">
        <ele>347</ele>
        <time>2017-03-14T16:14:41Z</time>
      </trkpt>
      <trkpt lat="44.43502" lon="1.61957">
        <ele>343</ele>
        <time>2017-03-14T16:14:47Z</time>
      </trkpt>
      <trkpt lat="44.4354" lon="1.61991">
        <ele>341</ele>
        <time>2017-03-14T16:14:53Z</time>
      </trkpt>
      <trkpt lat="44.43572" lon="1.62014">
        <ele>342</ele>
        <time>2017-03-14T16:14:58Z</time>
      </trkpt>
      <trkpt lat="44.43599" lon="1.62048">
        <ele>342</ele>
        <time>2017-03-14T16:15:03Z</time>
      </trkpt>
      <trkpt lat="44.43618" lon="1.62068">
        <ele>339</ele>
        <time>2017-03-14T16:15:06Z</time>
      </trkpt>
      <trkpt lat="44.43646" lon="1.62096">
        <ele>338</ele>
        <time>2017-03-14T16:15:10Z</time>
      </trkpt>
      <trkpt lat="44.43677" lon="1.62132">
        <ele>336</ele>
        <time>2017-03-14T16:15:17Z</time>
      </trkpt>
      <trkpt lat="44.43694" lon="1.62158">
        <ele>332</ele>
        <time>2017-03-14T16:15:22Z</time>
      </trkpt>
      <trkpt lat="44.43712" lon="1.62187">
        <ele>330</ele>
        <time>2017-03-14T16:15:28Z</time>
      </trkpt>
      <trkpt lat="44.43722" lon="1.62205">
        <ele>328</ele>
        <time>2017-03-14T16:15:33Z</time>
      </trkpt>
      <trkpt lat="44.43719" lon="1.62233">
        <ele>321</ele>
        <time>2017-03-14T16:15:43Z</time>
      </trkpt>
      <trkpt lat="44.43694" lon="1.62264">
        <ele>318</ele>
        <time>2017-03-14T16:15:50Z</time>
      </trkpt>
      <trkpt lat="44.43668" lon="1.62295">
        <ele>315</ele>
        <time>2017-03-14T16:15:56Z</time>
      </trkpt>
      <trkpt lat="44.43648" lon="1.6231">
        <ele>313</ele>
        <time>2017-03-14T16:16:02Z</time>
      </trkpt>
      <trkpt lat="44.43602" lon="1.62357">
        <ele>313</ele>
        <time>2017-03-14T16:16:10Z</time>
      </trkpt>
      <trkpt lat="44.43601" lon="1.62407">
        <ele>302</ele>
        <time>2017-03-14T16:16:17Z</time>
      </trkpt>
      <trkpt lat="44.43592" lon="1.62468">
        <ele>300</ele>
        <time>2017-03-14T16:16:23Z</time>
      </trkpt>
      <trkpt lat="44.43586" lon="1.62541">
        <ele>304</ele>
        <time>2017-03-14T16:16:29Z</time>
      </trkpt>
      <trkpt lat="44.43574" lon="1.62599">
        <ele>308</ele>
        <time>2017-03-14T16:16:35Z</time>
      </trkpt>
      <trkpt lat="44.43554" lon="1.62627">
        <ele>311</ele>
        <time>2017-03-14T16:16:40Z</time>
      </trkpt>
      <trkpt lat="44.4352" lon="1.62682">
        <ele>309</ele>
        <time>2017-03-14T16:16:47Z</time>
      </trkpt>
      <trkpt lat="44.43476" lon="1.62725">
        <ele>312</ele>
        <time>2017-03-14T16:16:54Z</time>
      </trkpt>
      <trkpt lat="44.43453" lon="1.62758">
        <ele>312</ele>
        <time>2017-03-14T16:16:59Z</time>
      </trkpt>
      <trkpt lat="44.43428" lon="1.62794">
        <ele>309</ele>
        <time>2017-03-14T16:17:04Z</time>
      </trkpt>
      <trkpt lat="44.43412" lon="1.62821">
        <ele>309</ele>
        <time>2017-03-14T16:17:09Z</time>
      </trkpt>
      <trkpt lat="44.43407" lon="1.6284">
        <ele>313</ele>
        <time>2017-03-14T16:17:17Z</time>
      </trkpt>
      <trkpt lat="44.43422" lon="1.62857">
        <ele>314</ele>
        <time>2017-03-14T16:17:25Z</time>
      </trkpt>
      <trkpt lat="44.43444" lon="1.62876">
        <ele>314</ele>
        <time>2017-03-14T16:17:32Z</time>
      </trkpt>
      <trkpt lat="44.43458" lon="1.62887">
        <ele>314</ele>
        <time>2017-03-14T16:17:37Z</time>
      </trkpt>
      <trkpt lat="44.43482" lon="1.62904">
        <ele>314</ele>
        <time>2017-03-14T16:17:47Z</time>
      </trkpt>
      <trkpt lat="44.43498" lon="1.62934">
        <ele>317</ele>
        <time>2017-03-14T16:17:56Z</time>
      </trkpt>
      <trkpt lat="44.4351" lon="1.62953">
        <ele>317</ele>
        <time>2017-03-14T16:18:02Z</time>
      </trkpt>
      <trkpt lat="44.43507" lon="1.62978">
        <ele>314</ele>
        <time>2017-03-14T16:18:12Z</time>
      </trkpt>
      <trkpt lat="44.43494" lon="1.63025">
        <ele>318</ele>
        <time>2017-03-14T16:18:26Z</time>
      </trkpt>
      <trkpt lat="44.43497" lon="1.63047">
        <ele>317</ele>
        <time>2017-03-14T16:18:32Z</time>
      </trkpt>
      <trkpt lat="44.43492" lon="1.63078">
        <ele>321</ele>
        <time>2017-03-14T16:18:43Z</time>
      </trkpt>
      <trkpt lat="44.43494" lon="1.6309">
        <ele>321</ele>
        <time>2017-03-14T16:18:50Z</time>
      </trkpt>
      <trkpt lat="44.43469" lon="1.63138">
        <ele>317</ele>
        <time>2017-03-14T16:19:15Z</time>
      </trkpt>
      <trkpt lat="44.43467" lon="1.63146">
        <ele>321</ele>
        <time>2017-03-14T16:19:21Z</time>
      </trkpt>
      <trkpt lat="44.43464" lon="1.63133">
        <ele>318</ele>
        <time>2017-03-14T16:19:29Z</time>
      </trkpt>
      <trkpt lat="44.43468" lon="1.63153">
        <ele>325</ele>
        <time>2017-03-14T16:19:53Z</time>
      </trkpt>
      <trkpt lat="44.43472" lon="1.63171">
        <ele>327</ele>
        <time>2017-03-14T16:20:01Z</time>
      </trkpt>
      <trkpt lat="44.43476" lon="1.63184">
        <ele>325</ele>
        <time>2017-03-14T16:20:12Z</time>
      </trkpt>
      <trkpt lat="44.43488" lon="1.63213">
        <ele>330</ele>
        <time>2017-03-14T16:20:25Z</time>
      </trkpt>
      <trkpt lat="44.43498" lon="1.63222">
        <ele>329</ele>
        <time>2017-03-14T16:20:34Z</time>
      </trkpt>
      <trkpt lat="44.43511" lon="1.63251">
        <ele>330</ele>
        <time>2017-03-14T16:20:52Z</time>
      </trkpt>
      <trkpt lat="44.43524" lon="1.63269">
        <ele>327</ele>
        <time>2017-03-14T16:21:05Z</time>
      </trkpt>
      <trkpt lat="44.43532" lon="1.63287">
        <ele>327</ele>
        <time>2017-03-14T16:21:16Z</time>
      </trkpt>
      <trkpt lat="44.43527" lon="1.63308">
        <ele>327</ele>
        <time>2017-03-14T16:21:30Z</time>
      </trkpt>
      <trkpt lat="44.43522" lon="1.63343">
        <ele>326</ele>
        <time>2017-03-14T16:21:47Z</time>
      </trkpt>
      <trkpt lat="44.43509" lon="1.63361">
        <ele>328</ele>
        <time>2017-03-14T16:21:58Z</time>
      </trkpt>
      <trkpt lat="44.43501" lon="1.63369">
        <ele>324</ele>
        <time>2017-03-14T16:22:11Z</time>
      </trkpt>
      <trkpt lat="44.43492" lon="1.63383">
        <ele>329</ele>
        <time>2017-03-14T16:22:21Z</time>
      </trkpt>
      <trkpt lat="44.43489" lon="1.63408">
        <ele>333</ele>
        <time>2017-03-14T16:22:33Z</time>
      </trkpt>
      <trkpt lat="44.43489" lon="1.63425">
        <ele>336</ele>
        <time>2017-03-14T16:22:44Z</time>
      </trkpt>
      <trkpt lat="44.43491" lon="1.63433">
        <ele>338</ele>
        <time>2017-03-14T16:22:46Z</time>
      </trkpt>
      <trkpt lat="44.43495" lon="1.6345">
        <ele>339</ele>
        <time>2017-03-14T16:22:58Z</time>
      </trkpt>
      <trkpt lat="44.43496" lon="1.63463">
        <ele>342</ele>
        <time>2017-03-14T16:23:06Z</time>
      </trkpt>
      <trkpt lat="44.43501" lon="1.63494">
        <ele>348</ele>
        <time>2017-03-14T16:23:22Z</time>
      </trkpt>
      <trkpt lat="44.4352" lon="1.63481">
        <ele>346</ele>
        <time>2017-03-14T16:23:39Z</time>
      </trkpt>
      <trkpt lat="44.43522" lon="1.63474">
        <ele>347</ele>
        <time>2017-03-14T16:23:42Z</time>
      </trkpt>
      <trkpt lat="44.43525" lon="1.63463">
        <ele>347</ele>
        <time>2017-03-14T16:23:53Z</time>
      </trkpt>
      <trkpt lat="44.43543" lon="1.63444">
        <ele>362</ele>
        <time>2017-03-14T16:24:14Z</time>
      </trkpt>
      <trkpt lat="44.43567" lon="1.63439">
        <ele>359</ele>
        <time>2017-03-14T16:24:32Z</time>
      </trkpt>
      <trkpt lat="44.43572" lon="1.63447">
        <ele>356</ele>
        <time>2017-03-14T16:24:35Z</time>
      </trkpt>
      <trkpt lat="44.43571" lon="1.63458">
        <ele>355</ele>
        <time>2017-03-14T16:24:44Z</time>
      </trkpt>
      <trkpt lat="44.4358" lon="1.63477">
        <ele>350</ele>
        <time>2017-03-14T16:24:54Z</time>
      </trkpt>
      <trkpt lat="44.43588" lon="1.63498">
        <ele>352</ele>
        <time>2017-03-14T16:25:07Z</time>
      </trkpt>
      <trkpt lat="44.43601" lon="1.63523">
        <ele>359</ele>
        <time>2017-03-14T16:25:20Z</time>
      </trkpt>
      <trkpt lat="44.43618" lon="1.63534">
        <ele>358</ele>
        <time>2017-03-14T16:25:33Z</time>
      </trkpt>
      <trkpt lat="44.43623" lon="1.63535">
        <ele>359</ele>
        <time>2017-03-14T16:25:34Z</time>
      </trkpt>
      <trkpt lat="44.43622" lon="1.63553">
        <ele>362</ele>
        <time>2017-03-14T16:25:45Z</time>
      </trkpt>
      <trkpt lat="44.43623" lon="1.63584">
        <ele>363</ele>
        <time>2017-03-14T16:25:59Z</time>
      </trkpt>
      <trkpt lat="44.43618" lon="1.63603">
        <ele>364</ele>
        <time>2017-03-14T16:26:07Z</time>
      </trkpt>
      <trkpt lat="44.43618" lon="1.63603">
        <ele>364</ele>
        <time>2017-03-14T16:26:12Z</time>
      </trkpt>
      <trkpt lat="44.43615" lon="1.63612">
        <ele>365</ele>
        <time>2017-03-14T16:26:13Z</time>
      </trkpt>
      <trkpt lat="44.43618" lon="1.6363">
        <ele>364</ele>
        <time>2017-03-14T16:26:24Z</time>
      </trkpt>
      <trkpt lat="44.43619" lon="1.63645">
        <ele>368</ele>
        <time>2017-03-14T16:26:31Z</time>
      </trkpt>
      <trkpt lat="44.43625" lon="1.6368">
        <ele>373</ele>
        <time>2017-03-14T16:26:50Z</time>
      </trkpt>
      <trkpt lat="44.43624" lon="1.63696">
        <ele>370</ele>
        <time>2017-03-14T16:27:00Z</time>
      </trkpt>
      <trkpt lat="44.43617" lon="1.6371">
        <ele>371</ele>
        <time>2017-03-14T16:27:11Z</time>
      </trkpt>
      <trkpt lat="44.43592" lon="1.63726">
        <ele>370</ele>
        <time>2017-03-14T16:27:33Z</time>
      </trkpt>
      <trkpt lat="44.43573" lon="1.63736">
        <ele>372</ele>
        <time>2017-03-14T16:27:44Z</time>
      </trkpt>
      <trkpt lat="44.43567" lon="1.63749">
        <ele>382</ele>
        <time>2017-03-14T16:27:54Z</time>
      </trkpt>
      <trkpt lat="44.43558" lon="1.6378">
        <ele>377</ele>
        <time>2017-03-14T16:28:13Z</time>
      </trkpt>
      <trkpt lat="44.43551" lon="1.63801">
        <ele>375</ele>
        <time>2017-03-14T16:28:22Z</time>
      </trkpt>
      <trkpt lat="44.43542" lon="1.63815">
        <ele>374</ele>
        <time>2017-03-14T16:28:34Z</time>
      </trkpt>
      <trkpt lat="44.43536" lon="1.6383">
        <ele>371</ele>
        <time>2017-03-14T16:28:43Z</time>
      </trkpt>
      <trkpt lat="44.43535" lon="1.63846">
        <ele>373</ele>
        <time>2017-03-14T16:28:51Z</time>
      </trkpt>
      <trkpt lat="44.43543" lon="1.63905">
        <ele>375</ele>
        <time>2017-03-14T16:29:14Z</time>
      </trkpt>
      <trkpt lat="44.4354" lon="1.63921">
        <ele>369</ele>
        <time>2017-03-14T16:29:24Z</time>
      </trkpt>
      <trkpt lat="44.43546" lon="1.63941">
        <ele>369</ele>
        <time>2017-03-14T16:29:40Z</time>
      </trkpt>
      <trkpt lat="44.43539" lon="1.63975">
        <ele>372</ele>
        <time>2017-03-14T16:29:54Z</time>
      </trkpt>
      <trkpt lat="44.43529" lon="1.64">
        <ele>378</ele>
        <time>2017-03-14T16:30:06Z</time>
      </trkpt>
      <trkpt lat="44.43529" lon="1.64">
        <ele>378</ele>
        <time>2017-03-14T16:30:13Z</time>
      </trkpt>
      <trkpt lat="44.43529" lon="1.64">
        <ele>378</ele>
        <time>2017-03-14T16:30:14Z</time>
      </trkpt>
      <trkpt lat="44.43518" lon="1.64017">
        <ele>374</ele>
        <time>2017-03-14T16:30:24Z</time>
      </trkpt>
      <trkpt lat="44.4351" lon="1.64038">
        <ele>379</ele>
        <time>2017-03-14T16:30:37Z</time>
      </trkpt>
      <trkpt lat="44.43513" lon="1.6407">
        <ele>385</ele>
        <time>2017-03-14T16:30:51Z</time>
      </trkpt>
      <trkpt lat="44.4352" lon="1.64092">
        <ele>384</ele>
        <time>2017-03-14T16:31:03Z</time>
      </trkpt>
      <trkpt lat="44.4352" lon="1.64092">
        <ele>384</ele>
        <time>2017-03-14T16:31:10Z</time>
      </trkpt>
      <trkpt lat="44.4352" lon="1.64092">
        <ele>384</ele>
        <time>2017-03-14T16:31:11Z</time>
      </trkpt>
      <trkpt lat="44.43522" lon="1.64126">
        <ele>381</ele>
        <time>2017-03-14T16:31:20Z</time>
      </trkpt>
      <trkpt lat="44.43522" lon="1.64126">
        <ele>381</ele>
        <time>2017-03-14T16:31:26Z</time>
      </trkpt>
      <trkpt lat="44.43522" lon="1.64126">
        <ele>381</ele>
        <time>2017-03-14T16:31:27Z</time>
      </trkpt>
      <trkpt lat="44.43509" lon="1.64142">
        <ele>382</ele>
        <time>2017-03-14T16:31:35Z</time>
      </trkpt>
      <trkpt lat="44.43502" lon="1.64148">
        <ele>382</ele>
        <time>2017-03-14T16:31:42Z</time>
      </trkpt>
      <trkpt lat="44.4349" lon="1.64182">
        <ele>397</ele>
        <time>2017-03-14T16:32:00Z</time>
      </trkpt>
      <trkpt lat="44.43475" lon="1.64193">
        <ele>391</ele>
        <time>2017-03-14T16:32:13Z</time>
      </trkpt>
      <trkpt lat="44.43461" lon="1.64216">
        <ele>392</ele>
        <time>2017-03-14T16:32:26Z</time>
      </trkpt>
      <trkpt lat="44.43459" lon="1.64236">
        <ele>389</ele>
        <time>2017-03-14T16:32:37Z</time>
      </trkpt>
      <trkpt lat="44.43459" lon="1.64257">
        <ele>383</ele>
        <time>2017-03-14T16:32:48Z</time>
      </trkpt>
      <trkpt lat="44.43464" lon="1.64278">
        <ele>377</ele>
        <time>2017-03-14T16:33:00Z</time>
      </trkpt>
      <trkpt lat="44.43472" lon="1.64317">
        <ele>374</ele>
        <time>2017-03-14T16:33:16Z</time>
      </trkpt>
      <trkpt lat="44.43477" lon="1.64332">
        <ele>374</ele>
        <time>2017-03-14T16:33:23Z</time>
      </trkpt>
      <trkpt lat="44.43479" lon="1.64362">
        <ele>374</ele>
        <time>2017-03-14T16:33:30Z</time>
      </trkpt>
      <trkpt lat="44.43482" lon="1.64406">
        <ele>374</ele>
        <time>2017-03-14T16:33:36Z</time>
      </trkpt>
      <trkpt lat="44.43488" lon="1.64466">
        <ele>377</ele>
        <time>2017-03-14T16:33:42Z</time>
      </trkpt>
      <trkpt lat="44.43475" lon="1.64515">
        <ele>379</ele>
        <time>2017-03-14T16:33:48Z</time>
      </trkpt>
      <trkpt lat="44.43457" lon="1.64555">
        <ele>379</ele>
        <time>2017-03-14T16:33:53Z</time>
      </trkpt>
      <trkpt lat="44.43446" lon="1.64582">
        <ele>381</ele>
        <time>2017-03-14T16:33:58Z</time>
      </trkpt>
      <trkpt lat="44.43419" lon="1.64585">
        <ele>381</ele>
        <time>2017-03-14T16:34:18Z</time>
      </trkpt>
      <trkpt lat="44.43368" lon="1.64571">
        <ele>374</ele>
        <time>2017-03-14T16:34:25Z</time>
      </trkpt>
      <trkpt lat="44.43335" lon="1.6456">
        <ele>369</ele>
        <time>2017-03-14T16:34:31Z</time>
      </trkpt>
      <trkpt lat="44.43311" lon="1.64569">
        <ele>366</ele>
        <time>2017-03-14T16:34:36Z</time>
      </trkpt>
      <trkpt lat="44.43286" lon="1.64583">
        <ele>364</ele>
        <time>2017-03-14T16:34:44Z</time>
      </trkpt>
      <trkpt lat="44.43258" lon="1.64569">
        <ele>364</ele>
        <time>2017-03-14T16:34:52Z</time>
      </trkpt>
      <trkpt lat="44.43217" lon="1.64569">
        <ele>358</ele>
        <time>2017-03-14T16:34:59Z</time>
      </trkpt>
      <trkpt lat="44.43187" lon="1.64568">
        <ele>358</ele>
        <time>2017-03-14T16:35:06Z</time>
      </trkpt>
      <trkpt lat="44.43152" lon="1.64553">
        <ele>357</ele>
        <time>2017-03-14T16:35:12Z</time>
      </trkpt>
      <trkpt lat="44.43123" lon="1.64543">
        <ele>362</ele>
        <time>2017-03-14T16:35:18Z</time>
      </trkpt>
      <trkpt lat="44.43105" lon="1.64532">
        <ele>363</ele>
        <time>2017-03-14T16:35:23Z</time>
      </trkpt>
      <trkpt lat="44.43079" lon="1.64529">
        <ele>365</ele>
        <time>2017-03-14T16:35:30Z</time>
      </trkpt>
      <trkpt lat="44.43051" lon="1.64522">
        <ele>366</ele>
        <time>2017-03-14T16:35:36Z</time>
      </trkpt>
      <trkpt lat="44.43023" lon="1.64517">
        <ele>366</ele>
        <time>2017-03-14T16:35:42Z</time>
      </trkpt>
      <trkpt lat="44.42998" lon="1.64515">
        <ele>367</ele>
        <time>2017-03-14T16:35:48Z</time>
      </trkpt>
      <trkpt lat="44.42971" lon="1.64509">
        <ele>368</ele>
        <time>2017-03-14T16:35:54Z</time>
      </trkpt>
      <trkpt lat="44.42941" lon="1.64501">
        <ele>374</ele>
        <time>2017-03-14T16:36:01Z</time>
      </trkpt>
      <trkpt lat="44.4292" lon="1.64505">
        <ele>374</ele>
        <time>2017-03-14T16:36:09Z</time>
      </trkpt>
      <trkpt lat="44.42879" lon="1.64493">
        <ele>379</ele>
        <time>2017-03-14T16:36:18Z</time>
      </trkpt>
      <trkpt lat="44.42871" lon="1.64509">
        <ele>384</ele>
        <time>2017-03-14T16:36:24Z</time>
      </trkpt>
      <trkpt lat="44.42861" lon="1.64539">
        <ele>388</ele>
        <time>2017-03-14T16:36:33Z</time>
      </trkpt>
      <trkpt lat="44.42856" lon="1.6457">
        <ele>400</ele>
        <time>2017-03-14T16:36:41Z</time>
      </trkpt>
      <trkpt lat="44.42851" lon="1.64591">
        <ele>399</ele>
        <time>2017-03-14T16:36:46Z</time>
      </trkpt>
      <trkpt lat="44.42844" lon="1.64629">
        <ele>405</ele>
        <time>2017-03-14T16:36:56Z</time>
      </trkpt>
      <trkpt lat="44.42837" lon="1.64658">
        <ele>412</ele>
        <time>2017-03-14T16:37:02Z</time>
      </trkpt>
      <trkpt lat="44.42831" lon="1.64678">
        <ele>412</ele>
        <time>2017-03-14T16:37:08Z</time>
      </trkpt>
      <trkpt lat="44.42821" lon="1.64708">
        <ele>419</ele>
        <time>2017-03-14T16:37:15Z</time>
      </trkpt>
      <trkpt lat="44.42818" lon="1.64751">
        <ele>420</ele>
        <time>2017-03-14T16:37:24Z</time>
      </trkpt>
      <trkpt lat="44.42815" lon="1.64777">
        <ele>423</ele>
        <time>2017-03-14T16:37:31Z</time>
      </trkpt>
      <trkpt lat="44.4281" lon="1.64799">
        <ele>422</ele>
        <time>2017-03-14T16:37:41Z</time>
      </trkpt>
      <trkpt lat="44.42809" lon="1.64818">
        <ele>422</ele>
        <time>2017-03-14T16:37:54Z</time>
      </trkpt>
      <trkpt lat="44.42809" lon="1.64846">
        <ele>421</ele>
        <time>2017-03-14T16:38:13Z</time>
      </trkpt>
      <trkpt lat="44.42796" lon="1.64881">
        <ele>426</ele>
        <time>2017-03-14T16:38:31Z</time>
      </trkpt>
      <trkpt lat="44.42776" lon="1.649">
        <ele>435</ele>
        <time>2017-03-14T16:38:46Z</time>
      </trkpt>
      <trkpt lat="44.42758" lon="1.64933">
        <ele>437</ele>
        <time>2017-03-14T16:39:11Z</time>
      </trkpt>
      <trkpt lat="44.42741" lon="1.64963">
        <ele>448</ele>
        <time>2017-03-14T16:39:28Z</time>
      </trkpt>
      <trkpt lat="44.42741" lon="1.64963">
        <ele>448</ele>
        <time>2017-03-14T16:39:34Z</time>
      </trkpt>
      <trkpt lat="44.42733" lon="1.64978">
        <ele>446</ele>
        <time>2017-03-14T16:39:41Z</time>
      </trkpt>
      <trkpt lat="44.42729" lon="1.65009">
        <ele>444</ele>
        <time>2017-03-14T16:39:53Z</time>
      </trkpt>
      <trkpt lat="44.42736" lon="1.65036">
        <ele>417</ele>
        <time>2017-03-14T16:40:11Z</time>
      </trkpt>
      <trkpt lat="44.42747" lon="1.65057">
        <ele>422</ele>
        <time>2017-03-14T16:40:22Z</time>
      </trkpt>
      <trkpt lat="44.42754" lon="1.65075">
        <ele>426</ele>
        <time>2017-03-14T16:40:34Z</time>
      </trkpt>
      <trkpt lat="44.42768" lon="1.65095">
        <ele>422</ele>
        <time>2017-03-14T16:40:46Z</time>
      </trkpt>
      <trkpt lat="44.42784" lon="1.65104">
        <ele>419</ele>
        <time>2017-03-14T16:40:59Z</time>
      </trkpt>
      <trkpt lat="44.42807" lon="1.65122">
        <ele>420</ele>
        <time>2017-03-14T16:41:18Z</time>
      </trkpt>
      <trkpt lat="44.42795" lon="1.65153">
        <ele>418</ele>
        <time>2017-03-14T16:41:36Z</time>
      </trkpt>
      <trkpt lat="44.42775" lon="1.65173">
        <ele>421</ele>
        <time>2017-03-14T16:41:53Z</time>
      </trkpt>
      <trkpt lat="44.42764" lon="1.65193">
        <ele>422</ele>
        <time>2017-03-14T16:42:07Z</time>
      </trkpt>
      <trkpt lat="44.42757" lon="1.65202">
        <ele>423</ele>
        <time>2017-03-14T16:42:19Z</time>
      </trkpt>
      <trkpt lat="44.42747" lon="1.65219">
        <ele>423</ele>
        <time>2017-03-14T16:42:31Z</time>
      </trkpt>
      <trkpt lat="44.42734" lon="1.65235">
        <ele>426</ele>
        <time>2017-03-14T16:42:45Z</time>
      </trkpt>
      <trkpt lat="44.42726" lon="1.65271">
        <ele>427</ele>
        <time>2017-03-14T16:43:01Z</time>
      </trkpt>
      <trkpt lat="44.42716" lon="1.65293">
        <ele>424</ele>
        <time>2017-03-14T16:43:11Z</time>
      </trkpt>
      <trkpt lat="44.42708" lon="1.65327">
        <ele>428</ele>
        <time>2017-03-14T16:43:19Z</time>
      </trkpt>
      <trkpt lat="44.42707" lon="1.65357">
        <ele>422</ele>
        <time>2017-03-14T16:43:26Z</time>
      </trkpt>
      <trkpt lat="44.42698" lon="1.65394">
        <ele>419</ele>
        <time>2017-03-14T16:43:33Z</time>
      </trkpt>
      <trkpt lat="44.42694" lon="1.65433">
        <ele>421</ele>
        <time>2017-03-14T16:43:39Z</time>
      </trkpt>
      <trkpt lat="44.42692" lon="1.6546">
        <ele>420</ele>
        <time>2017-03-14T16:43:44Z</time>
      </trkpt>
      <trkpt lat="44.42694" lon="1.65482">
        <ele>418</ele>
        <time>2017-03-14T16:43:50Z</time>
      </trkpt>
      <trkpt lat="44.42691" lon="1.65507">
        <ele>419</ele>
        <time>2017-03-14T16:43:59Z</time>
      </trkpt>
      <trkpt lat="44.42686" lon="1.6553">
        <ele>417</ele>
        <time>2017-03-14T16:44:09Z</time>
      </trkpt>
      <trkpt lat="44.42684" lon="1.65543">
        <ele>418</ele>
        <time>2017-03-14T16:44:16Z</time>
      </trkpt>
      <trkpt lat="44.42679" lon="1.65559">
        <ele>418</ele>
        <time>2017-03-14T16:44:23Z</time>
      </trkpt>
      <trkpt lat="44.42672" lon="1.6558">
        <ele>419</ele>
        <time>2017-03-14T16:44:33Z</time>
      </trkpt>
      <trkpt lat="44.42667" lon="1.65595">
        <ele>419</ele>
        <time>2017-03-14T16:44:43Z</time>
      </trkpt>
      <trkpt lat="44.42657" lon="1.65618">
        <ele>415</ele>
        <time>2017-03-14T16:44:56Z</time>
      </trkpt>
      <trkpt lat="44.42652" lon="1.65649">
        <ele>409</ele>
        <time>2017-03-14T16:45:13Z</time>
      </trkpt>
      <trkpt lat="44.42652" lon="1.65685">
        <ele>404</ele>
        <time>2017-03-14T16:45:32Z</time>
      </trkpt>
      <trkpt lat="44.42652" lon="1.65713">
        <ele>405</ele>
        <time>2017-03-14T16:45:46Z</time>
      </trkpt>
      <trkpt lat="44.42647" lon="1.6574">
        <ele>405</ele>
        <time>2017-03-14T16:46:01Z</time>
      </trkpt>
      <trkpt lat="44.42647" lon="1.6574">
        <ele>405</ele>
        <time>2017-03-14T16:46:09Z</time>
      </trkpt>
      <trkpt lat="44.42647" lon="1.6574">
        <ele>405</ele>
        <time>2017-03-14T16:46:10Z</time>
      </trkpt>
      <trkpt lat="44.42641" lon="1.65757">
        <ele>401</ele>
        <time>2017-03-14T16:47:50Z</time>
      </trkpt>
      <trkpt lat="44.42633" lon="1.65767">
        <ele>403</ele>
        <time>2017-03-14T16:47:58Z</time>
      </trkpt>
      <trkpt lat="44.42637" lon="1.65782">
        <ele>397</ele>
        <time>2017-03-14T16:48:23Z</time>
      </trkpt>
      <trkpt lat="44.42647" lon="1.65754">
        <ele>397</ele>
        <time>2017-03-14T16:48:43Z</time>
      </trkpt>
      <trkpt lat="44.4261" lon="1.65749">
        <ele>444</ele>
        <time>2017-03-14T16:49:51Z</time>
      </trkpt>
      <trkpt lat="44.42639" lon="1.65749">
        <ele>390</ele>
        <time>2017-03-14T16:50:02Z</time>
      </trkpt>
      <trkpt lat="44.42643" lon="1.65746">
        <ele>395</ele>
        <time>2017-03-14T16:50:10Z</time>
      </trkpt>
      <trkpt lat="44.42639" lon="1.65749">
        <ele>390</ele>
        <time>2017-03-14T16:50:18Z</time>
      </trkpt>
      <trkpt lat="44.42629" lon="1.65727">
        <ele>397</ele>
        <time>2017-03-14T16:57:18Z</time>
      </trkpt>
      <trkpt lat="44.42636" lon="1.65712">
        <ele>398</ele>
        <time>2017-03-14T16:57:26Z</time>
      </trkpt>
      <trkpt lat="44.42644" lon="1.65695">
        <ele>401</ele>
        <time>2017-03-14T16:57:36Z</time>
      </trkpt>
      <trkpt lat="44.42645" lon="1.65689">
        <ele>399</ele>
        <time>2017-03-14T16:57:41Z</time>
      </trkpt>
      <trkpt lat="44.42644" lon="1.65695">
        <ele>401</ele>
        <time>2017-03-14T16:57:49Z</time>
      </trkpt>
      <trkpt lat="44.42648" lon="1.6567">
        <ele>394</ele>
        <time>2017-03-14T16:58:24Z</time>
      </trkpt>
      <trkpt lat="44.42654" lon="1.65651">
        <ele>395</ele>
        <time>2017-03-14T16:58:36Z</time>
      </trkpt>
      <trkpt lat="44.42659" lon="1.65625">
        <ele>399</ele>
        <time>2017-03-14T16:58:46Z</time>
      </trkpt>
      <trkpt lat="44.4266" lon="1.65616">
        <ele>397</ele>
        <time>2017-03-14T16:58:50Z</time>
      </trkpt>
      <trkpt lat="44.42651" lon="1.65607">
        <ele>391</ele>
        <time>2017-03-14T16:59:01Z</time>
      </trkpt>
      <trkpt lat="44.42651" lon="1.65607">
        <ele>391</ele>
        <time>2017-03-14T16:59:26Z</time>
      </trkpt>
      <trkpt lat="44.42651" lon="1.65607">
        <ele>391</ele>
        <time>2017-03-14T16:59:27Z</time>
      </trkpt>
      <trkpt lat="44.42651" lon="1.65607">
        <ele>352.1</ele>
        <time>2017-03-14T17:00:12Z</time>
      </trkpt>
      <trkpt lat="44.42651" lon="1.65607">
        <ele>352.1</ele>
        <time>2017-03-14T17:00:13Z</time>
      </trkpt>
    </trkseg>
  </trk>
</gpx>